Observation data for Stinnett on 07/18/2019      Previous  Date  Next       Current Mesonet Observations  Soil Data  Daily Summary Page  Observations in Plain Language
KST3 180500Z 19009KT 27/16 A2997 RMK A01 T02740158  RH  049%=      5-min Rain = 0
KST3 180501Z 19008KT 27/16 A2998 RMK A01 T02740158  RH  049%=      5-min Rain = 0
KST3 180502Z 20007KT 27/16 A2998 RMK A01 T02730158  RH  049%=      5-min Rain = 0
KST3 180503Z 20007KT 27/16 A2998 RMK A01 T02720158  RH  050%=      5-min Rain = 0
KST3 180504Z 21006KT 27/16 A2998 RMK A01 T02700157  RH  050%=      5-min Rain = 0
KST3 180505Z 21007KT 27/16 A2998 RMK A01 T02680158  RH  051%=      5-min Rain = 0
KST3 180506Z 21006KT 27/16 A2998 RMK A01 T02650157  RH  052%=      5-min Rain = 0
KST3 180507Z 21006KT 26/16 A2998 RMK A01 T02620157  RH  052%=      5-min Rain = 0
KST3 180508Z 21006KT 26/16 A2998 RMK A01 T02610157  RH  053%=      5-min Rain = 0
KST3 180509Z 22007KT 26/16 A2998 RMK A01 T02590157  RH  053%=      5-min Rain = 0
KST3 180510Z 22007KT 26/16 A2998 RMK A01 T02580156  RH  053%=      5-min Rain = 0
KST3 180511Z 21007KT 26/16 A2998 RMK A01 T02570156  RH  053%=      5-min Rain = 0
KST3 180512Z 21007KT 26/16 A2998 RMK A01 T02570156  RH  054%=      5-min Rain = 0
KST3 180513Z 21008KT 26/16 A2998 RMK A01 T02570156  RH  054%=      5-min Rain = 0
KST3 180514Z 21008KT 26/16 A2998 RMK A01 T02570156  RH  054%=      5-min Rain = 0
KST3 180515Z 20008KT 26/16 A2998 RMK A01 T02570156  RH  054%=      5-min Rain = 0
KST3 180516Z 21008KT 26/16 A2998 RMK A01 T02580157  RH  054%=      5-min Rain = 0
KST3 180517Z 20008KT 26/16 A2997 RMK A01 T02590157  RH  053%=      5-min Rain = 0
KST3 180518Z 20007KT 26/16 A2998 RMK A01 T02590157  RH  053%=      5-min Rain = 0
KST3 180519Z 21007KT 26/16 A2997 RMK A01 T02600157  RH  053%=      5-min Rain = 0
KST3 180520Z 21007KT 26/16 A2998 RMK A01 T02590157  RH  053%=      5-min Rain = 0
KST3 180521Z 21007KT 26/16 A2998 RMK A01 T02580157  RH  053%=      5-min Rain = 0
KST3 180522Z 21007KT 26/16 A2998 RMK A01 T02580157  RH  054%=      5-min Rain = 0
KST3 180523Z 21008KT 26/16 A2998 RMK A01 T02570157  RH  054%=      5-min Rain = 0
KST3 180524Z 21008KT 26/16 A2998 RMK A01 T02560157  RH  054%=      5-min Rain = 0
KST3 180525Z 21008KT 26/16 A2998 RMK A01 T02550157  RH  054%=      5-min Rain = 0
KST3 180526Z 21008KT 26/16 A2998 RMK A01 T02550157  RH  055%=      5-min Rain = 0
KST3 180527Z 21009KT 26/16 A2997 RMK A01 T02550158  RH  055%=      5-min Rain = 0
KST3 180528Z 21009KT 26/16 A2997 RMK A01 T02560158  RH  055%=      5-min Rain = 0
KST3 180529Z 20010KT 26/16 A2997 RMK A01 T02570158  RH  054%=      5-min Rain = 0
KST3 180530Z 20010KT 26/16 A2997 RMK A01 T02590159  RH  054%=      5-min Rain = 0
KST3 180531Z 19011KT 26/16 A2997 RMK A01 T02600159  RH  054%=      5-min Rain = 0
KST3 180532Z 19011KT 26/16 A2997 RMK A01 T02620159  RH  053%=      5-min Rain = 0
KST3 180533Z 19012KT 26/16 A2997 RMK A01 T02640159  RH  052%=      5-min Rain = 0
KST3 180534Z 19011KT 27/16 A2997 RMK A01 T02660159  RH  052%=      5-min Rain = 0
KST3 180535Z 19011KT 27/16 A2997 RMK A01 T02670159  RH  052%=      5-min Rain = 0
KST3 180536Z 19011KT 27/16 A2997 RMK A01 T02670159  RH  052%=      5-min Rain = 0
KST3 180537Z 19012KT 27/16 A2997 RMK A01 T02670159  RH  051%=      5-min Rain = 0
KST3 180538Z 19011KT 27/16 A2997 RMK A01 T02680159  RH  051%=      5-min Rain = 0
KST3 180539Z 19011KT 27/16 A2997 RMK A01 T02680159  RH  051%=      5-min Rain = 0
KST3 180540Z 19012KT 27/16 A2997 RMK A01 T02680160  RH  052%=      5-min Rain = 0
KST3 180541Z 19011KT 27/16 A2997 RMK A01 T02670159  RH  052%=      5-min Rain = 0
KST3 180542Z 19011KT 27/16 A2997 RMK A01 T02680160  RH  052%=      5-min Rain = 0
KST3 180543Z 19011KT 27/16 A2997 RMK A01 T02670159  RH  052%=      5-min Rain = 0
KST3 180544Z 19011KT 27/16 A2997 RMK A01 T02670160  RH  052%=      5-min Rain = 0
KST3 180545Z 19011KT 27/16 A2997 RMK A01 T02670160  RH  052%=      5-min Rain = 0
KST3 180546Z 19013KT 27/16 A2997 RMK A01 T02670160  RH  052%=      5-min Rain = 0
KST3 180547Z 19012KT 27/16 A2997 RMK A01 T02670159  RH  052%=      5-min Rain = 0
KST3 180548Z 18011KT 27/16 A2997 RMK A01 T02680160  RH  052%=      5-min Rain = 0
KST3 180549Z 18012KT 27/16 A2996 RMK A01 T02680160  RH  052%=      5-min Rain = 0
KST3 180550Z 18014KT 27/16 A2996 RMK A01 T02680160  RH  052%=      5-min Rain = 0
KST3 180551Z 18014KT 27/16 A2996 RMK A01 T02680160  RH  051%=      5-min Rain = 0
KST3 180552Z 18014KT 27/16 A2996 RMK A01 T02690160  RH  051%=      5-min Rain = 0
KST3 180553Z 18013KT 27/16 A2996 RMK A01 T02690160  RH  051%=      5-min Rain = 0
KST3 180554Z 18012KT 27/16 A2996 RMK A01 T02700160  RH  051%=      5-min Rain = 0
KST3 180555Z 18013KT 27/16 A2996 RMK A01 T02690160  RH  051%=      5-min Rain = 0
KST3 180556Z 18015KT 27/16 A2996 RMK A01 T02690160  RH  051%=      5-min Rain = 0
KST3 180557Z 18012KT 27/16 A2996 RMK A01 T02690160  RH  051%=      5-min Rain = 0
KST3 180558Z 19012KT 27/16 A2996 RMK A01 T02690160  RH  051%=      5-min Rain = 0
KST3 180559Z 19013KT 27/16 A2996 RMK A01 T02680160  RH  051%=      5-min Rain = 0
KST3 180600Z 19011KT 27/16 A2996 RMK A01 T02680160  RH  052%=      5-min Rain = 0
KST3 180601Z 19012KT 27/16 A2996 RMK A01 T02680161  RH  052%=      5-min Rain = 0
KST3 180602Z 19011KT 27/16 A2996 RMK A01 T02680161  RH  052%=      5-min Rain = 0
KST3 180603Z 19010KT 27/16 A2996 RMK A01 T02670161  RH  052%=      5-min Rain = 0
KST3 180604Z 19010KT 27/16 A2996 RMK A01 T02660161  RH  052%=      5-min Rain = 0
KST3 180605Z 19010KT 27/16 A2996 RMK A01 T02650161  RH  053%=      5-min Rain = 0
KST3 180606Z 18011KT 27/16 A2996 RMK A01 T02650161  RH  053%=      5-min Rain = 0
KST3 180607Z 18010KT 26/16 A2996 RMK A01 T02640161  RH  053%=      5-min Rain = 0
KST3 180608Z 18009KT 26/16 A2996 RMK A01 T02640161  RH  053%=      5-min Rain = 0
KST3 180609Z 18009KT 26/16 A2996 RMK A01 T02630161  RH  053%=      5-min Rain = 0
KST3 180610Z 18009KT 26/16 A2996 RMK A01 T02630161  RH  054%=      5-min Rain = 0
KST3 180611Z 18009KT 26/16 A2996 RMK A01 T02620161  RH  054%=      5-min Rain = 0
KST3 180612Z 18010KT 26/16 A2995 RMK A01 T02620161  RH  054%=      5-min Rain = 0
KST3 180613Z 18009KT 26/16 A2995 RMK A01 T02620161  RH  054%=      5-min Rain = 0
KST3 180614Z 18011KT 26/16 A2995 RMK A01 T02620161  RH  054%=      5-min Rain = 0
KST3 180615Z 18011KT 26/16 A2995 RMK A01 T02610161  RH  054%=      5-min Rain = 0
KST3 180616Z 18010KT 26/16 A2995 RMK A01 T02610161  RH  054%=      5-min Rain = 0
KST3 180617Z 18011KT 26/16 A2995 RMK A01 T02610161  RH  054%=      5-min Rain = 0
KST3 180618Z 18011KT 26/16 A2995 RMK A01 T02610161  RH  054%=      5-min Rain = 0
KST3 180619Z 18011KT 26/16 A2995 RMK A01 T02610161  RH  054%=      5-min Rain = 0
KST3 180620Z 18011KT 26/16 A2995 RMK A01 T02610160  RH  054%=      5-min Rain = 0
KST3 180621Z 18011KT 26/16 A2995 RMK A01 T02610160  RH  054%=      5-min Rain = 0
KST3 180622Z 18012KT 26/16 A2995 RMK A01 T02610160  RH  054%=      5-min Rain = 0
KST3 180623Z 18011KT 26/16 A2995 RMK A01 T02610160  RH  053%=      5-min Rain = 0
KST3 180624Z 17011KT 26/16 A2995 RMK A01 T02620160  RH  054%=      5-min Rain = 0
KST3 180625Z 18012KT 26/16 A2995 RMK A01 T02610160  RH  054%=      5-min Rain = 0
KST3 180626Z 17010KT 26/16 A2995 RMK A01 T02610159  RH  054%=      5-min Rain = 0
KST3 180627Z 17013KT 26/16 A2994 RMK A01 T02610159  RH  053%=      5-min Rain = 0
KST3 180628Z 17012KT 26/16 A2994 RMK A01 T02620160  RH  053%=      5-min Rain = 0
KST3 180629Z 18012KT 26/16 A2994 RMK A01 T02620159  RH  053%=      5-min Rain = 0
KST3 180630Z 18011KT 26/16 A2994 RMK A01 T02620159  RH  053%=      5-min Rain = 0
KST3 180631Z 18012KT 26/16 A2994 RMK A01 T02620160  RH  053%=      5-min Rain = 0
KST3 180632Z 18012KT 26/16 A2994 RMK A01 T02610160  RH  053%=      5-min Rain = 0
KST3 180633Z 18010KT 26/16 A2994 RMK A01 T02610160  RH  053%=      5-min Rain = 0
KST3 180634Z 18011KT 26/16 A2994 RMK A01 T02610160  RH  054%=      5-min Rain = 0
KST3 180635Z 18011KT 26/16 A2994 RMK A01 T02600160  RH  054%=      5-min Rain = 0
KST3 180636Z 18011KT 26/16 A2994 RMK A01 T02610160  RH  054%=      5-min Rain = 0
KST3 180637Z 18012KT 26/16 A2994 RMK A01 T02600160  RH  054%=      5-min Rain = 0
KST3 180638Z 18013KT 26/16 A2994 RMK A01 T02610160  RH  054%=      5-min Rain = 0
KST3 180639Z 18012KT 26/16 A2994 RMK A01 T02610160  RH  054%=      5-min Rain = 0
KST3 180640Z 18009KT 26/16 A2994 RMK A01 T02610160  RH  054%=      5-min Rain = 0
KST3 180641Z 18011KT 26/16 A2994 RMK A01 T02610160  RH  054%=      5-min Rain = 0
KST3 180642Z 17013KT 26/16 A2994 RMK A01 T02610160  RH  054%=      5-min Rain = 0
KST3 180643Z 18012KT 26/16 A2994 RMK A01 T02610160  RH  054%=      5-min Rain = 0
KST3 180644Z 18014KT 26/16 A2994 RMK A01 T02610159  RH  054%=      5-min Rain = 0
KST3 180645Z 18012KT 26/16 A2994 RMK A01 T02620160  RH  053%=      5-min Rain = 0
KST3 180646Z 18011KT 26/16 A2994 RMK A01 T02620160  RH  053%=      5-min Rain = 0
KST3 180647Z 18013KT 26/16 A2994 RMK A01 T02620160  RH  053%=      5-min Rain = 0
KST3 180648Z 18014KT 26/16 A2994 RMK A01 T02620160  RH  053%=      5-min Rain = 0
KST3 180649Z 18015KT 26/16 A2994 RMK A01 T02630160  RH  053%=      5-min Rain = 0
KST3 180650Z 18014KT 26/16 A2994 RMK A01 T02630160  RH  053%=      5-min Rain = 0
KST3 180651Z 18012KT 26/16 A2994 RMK A01 T02640161  RH  053%=      5-min Rain = 0
KST3 180652Z 18012KT 26/16 A2994 RMK A01 T02640161  RH  053%=      5-min Rain = 0
KST3 180653Z 19011KT 26/16 A2994 RMK A01 T02630160  RH  053%=      5-min Rain = 0
KST3 180654Z 19011KT 26/16 A2994 RMK A01 T02630161  RH  053%=      5-min Rain = 0
KST3 180655Z 19013KT 26/16 A2994 RMK A01 T02630160  RH  053%=      5-min Rain = 0
KST3 180656Z 19011KT 26/16 A2994 RMK A01 T02630161  RH  053%=      5-min Rain = 0
KST3 180657Z 19011KT 26/16 A2995 RMK A01 T02630161  RH  053%=      5-min Rain = 0
KST3 180658Z 19012KT 26/16 A2995 RMK A01 T02630161  RH  053%=      5-min Rain = 0
KST3 180659Z 19012KT 26/16 A2995 RMK A01 T02620161  RH  054%=      5-min Rain = 0
KST3 180700Z 19010KT 26/16 A2995 RMK A01 T02610161  RH  054%=      5-min Rain = 0
KST3 180701Z 19011KT 26/16 A2995 RMK A01 T02600161  RH  054%=      5-min Rain = 0
KST3 180702Z 19012KT 26/16 A2995 RMK A01 T02600161  RH  054%=      5-min Rain = 0
KST3 180703Z 19012KT 26/16 A2995 RMK A01 T02610162  RH  054%=      5-min Rain = 0
KST3 180704Z 19011KT 26/16 A2995 RMK A01 T02600161  RH  054%=      5-min Rain = 0
KST3 180705Z 19011KT 26/16 A2995 RMK A01 T02600162  RH  055%=      5-min Rain = 0
KST3 180706Z 19011KT 26/16 A2995 RMK A01 T02600162  RH  055%=      5-min Rain = 0
KST3 180707Z 19012KT 26/16 A2995 RMK A01 T02600162  RH  055%=      5-min Rain = 0
KST3 180708Z 19011KT 26/16 A2995 RMK A01 T02600162  RH  055%=      5-min Rain = 0
KST3 180709Z 19010KT 26/16 A2995 RMK A01 T02600162  RH  055%=      5-min Rain = 0
KST3 180710Z 19011KT 26/16 A2995 RMK A01 T02600162  RH  055%=      5-min Rain = 0
KST3 180711Z 20012KT 26/16 A2995 RMK A01 T02600162  RH  055%=      5-min Rain = 0
KST3 180712Z 20010KT 26/16 A2995 RMK A01 T02600162  RH  055%=      5-min Rain = 0
KST3 180713Z 20010KT 26/16 A2995 RMK A01 T02600162  RH  055%=      5-min Rain = 0
KST3 180714Z 20010KT 26/16 A2995 RMK A01 T02590162  RH  055%=      5-min Rain = 0
KST3 180715Z 20011KT 26/16 A2995 RMK A01 T02590162  RH  055%=      5-min Rain = 0
KST3 180716Z 19012KT 26/16 A2995 RMK A01 T02590162  RH  055%=      5-min Rain = 0
KST3 180717Z 19011KT 26/16 A2995 RMK A01 T02590162  RH  055%=      5-min Rain = 0
KST3 180718Z 19012KT 26/16 A2995 RMK A01 T02590162  RH  055%=      5-min Rain = 0
KST3 180719Z 19011KT 26/16 A2995 RMK A01 T02590162  RH  055%=      5-min Rain = 0
KST3 180720Z 19011KT 26/16 A2995 RMK A01 T02590162  RH  055%=      5-min Rain = 0
KST3 180721Z 19011KT 26/16 A2995 RMK A01 T02590162  RH  055%=      5-min Rain = 0
KST3 180722Z 19011KT 26/16 A2995 RMK A01 T02590163  RH  055%=      5-min Rain = 0
KST3 180723Z 19013KT 26/16 A2995 RMK A01 T02590163  RH  055%=      5-min Rain = 0
KST3 180724Z 19011KT 26/16 A2995 RMK A01 T02590163  RH  055%=      5-min Rain = 0
KST3 180725Z 20011KT 26/16 A2995 RMK A01 T02590163  RH  055%=      5-min Rain = 0
KST3 180726Z 20011KT 26/16 A2995 RMK A01 T02590163  RH  056%=      5-min Rain = 0
KST3 180727Z 20011KT 26/16 A2995 RMK A01 T02580163  RH  056%=      5-min Rain = 0
KST3 180728Z 19011KT 26/16 A2995 RMK A01 T02580163  RH  056%=      5-min Rain = 0
KST3 180729Z 20011KT 26/16 A2995 RMK A01 T02590163  RH  055%=      5-min Rain = 0
KST3 180730Z 19012KT 26/16 A2995 RMK A01 T02590163  RH  055%=      5-min Rain = 0
KST3 180731Z 19013KT 26/16 A2995 RMK A01 T02590163  RH  055%=      5-min Rain = 0
KST3 180732Z 19010KT 26/16 A2995 RMK A01 T02600163  RH  055%=      5-min Rain = 0
KST3 180733Z 19013KT 26/16 A2995 RMK A01 T02600163  RH  055%=      5-min Rain = 0
KST3 180734Z 20013KT 26/16 A2995 RMK A01 T02610163  RH  055%=      5-min Rain = 0
KST3 180735Z 20011KT 26/16 A2995 RMK A01 T02610163  RH  055%=      5-min Rain = 0
KST3 180736Z 19010KT 26/16 A2995 RMK A01 T02610163  RH  055%=      5-min Rain = 0
KST3 180737Z 19011KT 26/16 A2995 RMK A01 T02600163  RH  055%=      5-min Rain = 0
KST3 180738Z 20010KT 26/16 A2995 RMK A01 T02600163  RH  055%=      5-min Rain = 0
KST3 180739Z 20010KT 26/16 A2995 RMK A01 T02590163  RH  055%=      5-min Rain = 0
KST3 180740Z 20011KT 26/16 A2995 RMK A01 T02590163  RH  055%=      5-min Rain = 0
KST3 180741Z 20011KT 26/16 A2995 RMK A01 T02600163  RH  055%=      5-min Rain = 0
KST3 180742Z 19011KT 26/16 A2995 RMK A01 T02600163  RH  055%=      5-min Rain = 0
KST3 180743Z 19010KT 26/16 A2995 RMK A01 T02600163  RH  055%=      5-min Rain = 0
KST3 180744Z 19011KT 26/16 A2995 RMK A01 T02600163  RH  055%=      5-min Rain = 0
KST3 180745Z 20010KT 26/16 A2995 RMK A01 T02600163  RH  055%=      5-min Rain = 0
KST3 180746Z 19010KT 26/16 A2995 RMK A01 T02600163  RH  055%=      5-min Rain = 0
KST3 180747Z 20010KT 26/16 A2995 RMK A01 T02600163  RH  055%=      5-min Rain = 0
KST3 180748Z 20010KT 26/16 A2995 RMK A01 T02600163  RH  055%=      5-min Rain = 0
KST3 180749Z 20011KT 26/16 A2995 RMK A01 T02600163  RH  055%=      5-min Rain = 0
KST3 180750Z 20010KT 26/16 A2995 RMK A01 T02600163  RH  055%=      5-min Rain = 0
KST3 180751Z 20009KT 26/16 A2995 RMK A01 T02600163  RH  055%=      5-min Rain = 0
KST3 180752Z 21012KT 26/16 A2994 RMK A01 T02600163  RH  055%=      5-min Rain = 0
KST3 180753Z 19011KT 26/16 A2995 RMK A01 T02600162  RH  055%=      5-min Rain = 0
KST3 180754Z 20010KT 26/16 A2995 RMK A01 T02600162  RH  055%=      5-min Rain = 0
KST3 180755Z 20009KT 26/16 A2995 RMK A01 T02600163  RH  055%=      5-min Rain = 0
KST3 180756Z 20009KT 26/16 A2995 RMK A01 T02600163  RH  055%=      5-min Rain = 0
KST3 180757Z 20010KT 26/16 A2995 RMK A01 T02580163  RH  055%=      5-min Rain = 0
KST3 180758Z 20010KT 26/16 A2995 RMK A01 T02580163  RH  056%=      5-min Rain = 0
KST3 180759Z 20011KT 26/16 A2994 RMK A01 T02580163  RH  056%=      5-min Rain = 0
KST3 180800Z 20010KT 26/16 A2995 RMK A01 T02580163  RH  056%=      5-min Rain = 0
KST3 180801Z 20010KT 26/16 A2995 RMK A01 T02570163  RH  056%=      5-min Rain = 0
KST3 180802Z 20010KT 26/16 A2995 RMK A01 T02560163  RH  056%=      5-min Rain = 0
KST3 180803Z 20009KT 26/16 A2994 RMK A01 T02560162  RH  056%=      5-min Rain = 0
KST3 180804Z 20009KT 26/16 A2994 RMK A01 T02560163  RH  056%=      5-min Rain = 0
KST3 180805Z 20010KT 26/16 A2994 RMK A01 T02550163  RH  057%=      5-min Rain = 0
KST3 180806Z 19010KT 26/16 A2994 RMK A01 T02550163  RH  057%=      5-min Rain = 0
KST3 180807Z 20010KT 26/16 A2994 RMK A01 T02550162  RH  056%=      5-min Rain = 0
KST3 180808Z 20010KT 26/16 A2994 RMK A01 T02560162  RH  056%=      5-min Rain = 0
KST3 180809Z 20010KT 26/16 A2994 RMK A01 T02560162  RH  056%=      5-min Rain = 0
KST3 180810Z 20010KT 26/16 A2994 RMK A01 T02560163  RH  056%=      5-min Rain = 0
KST3 180811Z 20010KT 26/16 A2994 RMK A01 T02550162  RH  056%=      5-min Rain = 0
KST3 180812Z 20010KT 26/16 A2994 RMK A01 T02550162  RH  057%=      5-min Rain = 0
KST3 180813Z 19009KT 25/16 A2994 RMK A01 T02540162  RH  057%=      5-min Rain = 0
KST3 180814Z 20010KT 25/16 A2994 RMK A01 T02540162  RH  057%=      5-min Rain = 0
KST3 180815Z 20010KT 25/16 A2994 RMK A01 T02540162  RH  057%=      5-min Rain = 0
KST3 180816Z 20011KT 25/16 A2994 RMK A01 T02540162  RH  057%=      5-min Rain = 0
KST3 180817Z 20010KT 25/16 A2994 RMK A01 T02540162  RH  057%=      5-min Rain = 0
KST3 180818Z 20011KT 25/16 A2994 RMK A01 T02540162  RH  057%=      5-min Rain = 0
KST3 180819Z 19010KT 25/16 A2994 RMK A01 T02540162  RH  057%=      5-min Rain = 0
KST3 180820Z 20011KT 25/16 A2994 RMK A01 T02540162  RH  057%=      5-min Rain = 0
KST3 180821Z 19011KT 26/16 A2994 RMK A01 T02550162  RH  056%=      5-min Rain = 0
KST3 180822Z 20011KT 26/16 A2994 RMK A01 T02550162  RH  056%=      5-min Rain = 0
KST3 180823Z 19011KT 26/16 A2994 RMK A01 T02550161  RH  056%=      5-min Rain = 0
KST3 180824Z 19010KT 26/16 A2994 RMK A01 T02550161  RH  056%=      5-min Rain = 0
KST3 180825Z 19010KT 26/16 A2994 RMK A01 T02550162  RH  056%=      5-min Rain = 0
KST3 180826Z 19011KT 26/16 A2994 RMK A01 T02550162  RH  056%=      5-min Rain = 0
KST3 180827Z 19011KT 25/16 A2994 RMK A01 T02540162  RH  056%=      5-min Rain = 0
KST3 180828Z 19010KT 25/16 A2994 RMK A01 T02540162  RH  056%=      5-min Rain = 0
KST3 180829Z 19010KT 25/16 A2994 RMK A01 T02540162  RH  057%=      5-min Rain = 0
KST3 180830Z 19010KT 25/16 A2994 RMK A01 T02530161  RH  057%=      5-min Rain = 0
KST3 180831Z 19010KT 25/16 A2994 RMK A01 T02530161  RH  057%=      5-min Rain = 0
KST3 180832Z 19010KT 25/16 A2994 RMK A01 T02530161  RH  057%=      5-min Rain = 0
KST3 180833Z 19011KT 25/16 A2994 RMK A01 T02530161  RH  057%=      5-min Rain = 0
KST3 180834Z 19011KT 25/16 A2994 RMK A01 T02530161  RH  057%=      5-min Rain = 0
KST3 180835Z 19011KT 25/16 A2994 RMK A01 T02530161  RH  057%=      5-min Rain = 0
KST3 180836Z 19012KT 25/16 A2994 RMK A01 T02530161  RH  057%=      5-min Rain = 0
KST3 180837Z 19011KT 25/16 A2994 RMK A01 T02530161  RH  057%=      5-min Rain = 0
KST3 180838Z 19012KT 25/16 A2994 RMK A01 T02530161  RH  057%=      5-min Rain = 0
KST3 180839Z 19013KT 25/16 A2994 RMK A01 T02530161  RH  056%=      5-min Rain = 0
KST3 180840Z 19011KT 25/16 A2994 RMK A01 T02540160  RH  056%=      5-min Rain = 0
KST3 180841Z 19010KT 26/16 A2994 RMK A01 T02550161  RH  056%=      5-min Rain = 0
KST3 180842Z 19011KT 25/16 A2994 RMK A01 T02540160  RH  056%=      5-min Rain = 0
KST3 180843Z 19012KT 25/16 A2994 RMK A01 T02540160  RH  056%=      5-min Rain = 0
KST3 180844Z 20011KT 25/16 A2994 RMK A01 T02540160  RH  056%=      5-min Rain = 0
KST3 180845Z 19011KT 25/16 A2994 RMK A01 T02540160  RH  056%=      5-min Rain = 0
KST3 180846Z 19011KT 25/16 A2994 RMK A01 T02540160  RH  056%=      5-min Rain = 0
KST3 180847Z 19012KT 25/16 A2994 RMK A01 T02540160  RH  056%=      5-min Rain = 0
KST3 180848Z 20012KT 25/16 A2994 RMK A01 T02540160  RH  056%=      5-min Rain = 0
KST3 180849Z 19013KT 25/16 A2994 RMK A01 T02540160  RH  056%=      5-min Rain = 0
KST3 180850Z 20013KT 26/16 A2994 RMK A01 T02550160  RH  056%=      5-min Rain = 0
KST3 180851Z 19013KT 26/16 A2994 RMK A01 T02550160  RH  056%=      5-min Rain = 0
KST3 180852Z 19011KT 26/16 A2994 RMK A01 T02560160  RH  055%=      5-min Rain = 0
KST3 180853Z 19014KT 26/16 A2994 RMK A01 T02560160  RH  055%=      5-min Rain = 0
KST3 180854Z 19012KT 26/16 A2994 RMK A01 T02560160  RH  055%=      5-min Rain = 0
KST3 180855Z 19012KT 26/16 A2994 RMK A01 T02560160  RH  055%=      5-min Rain = 0
KST3 180856Z 19013KT 26/16 A2994 RMK A01 T02560160  RH  055%=      5-min Rain = 0
KST3 180857Z 19013KT 26/16 A2994 RMK A01 T02550160  RH  056%=      5-min Rain = 0
KST3 180858Z 19014KT 26/16 A2994 RMK A01 T02550160  RH  055%=      5-min Rain = 0
KST3 180859Z 19012KT 26/16 A2994 RMK A01 T02560160  RH  055%=      5-min Rain = 0
KST3 180900Z 19011KT 26/16 A2994 RMK A01 T02560160  RH  055%=      5-min Rain = 0
KST3 180901Z 19014KT 26/16 A2994 RMK A01 T02560160  RH  056%=      5-min Rain = 0
KST3 180902Z 19014KT 26/16 A2994 RMK A01 T02550160  RH  055%=      5-min Rain = 0
KST3 180903Z 19013KT 26/16 A2994 RMK A01 T02560160  RH  055%=      5-min Rain = 0
KST3 180904Z 20012KT 26/16 A2994 RMK A01 T02560160  RH  055%=      5-min Rain = 0
KST3 180905Z 19013KT 26/16 A2994 RMK A01 T02560160  RH  055%=      5-min Rain = 0
KST3 180906Z 19014KT 26/16 A2994 RMK A01 T02560160  RH  055%=      5-min Rain = 0
KST3 180907Z 19012KT 26/16 A2994 RMK A01 T02560160  RH  055%=      5-min Rain = 0
KST3 180908Z 19013KT 26/16 A2994 RMK A01 T02560160  RH  055%=      5-min Rain = 0
KST3 180909Z 20012KT 26/16 A2994 RMK A01 T02560160  RH  055%=      5-min Rain = 0
KST3 180910Z 19012KT 26/16 A2994 RMK A01 T02550160  RH  056%=      5-min Rain = 0
KST3 180911Z 19014KT 26/16 A2994 RMK A01 T02550160  RH  056%=      5-min Rain = 0
KST3 180912Z 20012KT 26/16 A2994 RMK A01 T02550160  RH  056%=      5-min Rain = 0
KST3 180913Z 20016KT 26/16 A2994 RMK A01 T02550160  RH  056%=      5-min Rain = 0
KST3 180914Z 19014KT 26/16 A2994 RMK A01 T02550160  RH  056%=      5-min Rain = 0
KST3 180915Z 20012KT 26/16 A2994 RMK A01 T02550160  RH  055%=      5-min Rain = 0
KST3 180916Z 20013KT 26/16 A2994 RMK A01 T02550160  RH  055%=      5-min Rain = 0
KST3 180917Z 20015KT 26/16 A2994 RMK A01 T02560160  RH  055%=      5-min Rain = 0
KST3 180918Z 20014KT 26/16 A2994 RMK A01 T02560159  RH  055%=      5-min Rain = 0
KST3 180919Z 20014KT 26/16 A2994 RMK A01 T02560159  RH  055%=      5-min Rain = 0
KST3 180920Z 20014KT 26/16 A2994 RMK A01 T02560160  RH  055%=      5-min Rain = 0
KST3 180921Z 20015KT 26/16 A2994 RMK A01 T02560160  RH  055%=      5-min Rain = 0
KST3 180922Z 19012KT 26/16 A2994 RMK A01 T02560159  RH  055%=      5-min Rain = 0
KST3 180923Z 20013G18KT 26/16 A2994 RMK A01 T02560159  RH  055%=      5-min Rain = 0
KST3 180924Z 20013G19KT 26/16 A2994 RMK A01 T02560159  RH  055%=      5-min Rain = 0
KST3 180925Z 20016KT 26/16 A2994 RMK A01 T02560159  RH  055%=      5-min Rain = 0
KST3 180926Z 19015KT 26/16 A2994 RMK A01 T02560159  RH  055%=      5-min Rain = 0
KST3 180927Z 20015KT 26/16 A2994 RMK A01 T02570158  RH  055%=      5-min Rain = 0
KST3 180928Z 20014KT 26/16 A2994 RMK A01 T02570158  RH  054%=      5-min Rain = 0
KST3 180929Z 20014G19KT 26/16 A2994 RMK A01 T02570159  RH  055%=      5-min Rain = 0
KST3 180930Z 20015G20KT 26/16 A2994 RMK A01 T02570159  RH  055%=      5-min Rain = 0
KST3 180931Z 20015KT 26/16 A2994 RMK A01 T02570158  RH  055%=      5-min Rain = 0
KST3 180932Z 20014KT 26/16 A2994 RMK A01 T02570158  RH  055%=      5-min Rain = 0
KST3 180933Z 20014KT 26/16 A2994 RMK A01 T02570158  RH  055%=      5-min Rain = 0
KST3 180934Z 20013KT 26/16 A2994 RMK A01 T02560158  RH  055%=      5-min Rain = 0
KST3 180935Z 20014KT 26/16 A2994 RMK A01 T02560158  RH  055%=      5-min Rain = 0
KST3 180936Z 20015KT 26/16 A2994 RMK A01 T02560158  RH  055%=      5-min Rain = 0
KST3 180937Z 20015G20KT 26/16 A2994 RMK A01 T02560158  RH  055%=      5-min Rain = 0
KST3 180938Z 20014G19KT 26/16 A2994 RMK A01 T02570158  RH  054%=      5-min Rain = 0
KST3 180939Z 20013KT 26/16 A2994 RMK A01 T02570158  RH  054%=      5-min Rain = 0
KST3 180940Z 20013KT 26/16 A2994 RMK A01 T02560158  RH  055%=      5-min Rain = 0
KST3 180941Z 20014KT 26/16 A2994 RMK A01 T02560159  RH  055%=      5-min Rain = 0
KST3 180942Z 20015KT 26/16 A2994 RMK A01 T02560159  RH  055%=      5-min Rain = 0
KST3 180943Z 20015KT 26/16 A2994 RMK A01 T02560159  RH  055%=      5-min Rain = 0
KST3 180944Z 20016KT 26/16 A2994 RMK A01 T02560159  RH  055%=      5-min Rain = 0
KST3 180945Z 20015KT 26/16 A2994 RMK A01 T02560158  RH  055%=      5-min Rain = 0
KST3 180946Z 20016KT 26/16 A2994 RMK A01 T02560159  RH  055%=      5-min Rain = 0
KST3 180947Z 19015KT 26/16 A2994 RMK A01 T02560159  RH  055%=      5-min Rain = 0
KST3 180948Z 20016KT 26/16 A2994 RMK A01 T02560159  RH  055%=      5-min Rain = 0
KST3 180949Z 20015G20KT 26/16 A2994 RMK A01 T02570159  RH  055%=      5-min Rain = 0
KST3 180950Z 20014KT 26/16 A2994 RMK A01 T02560159  RH  055%=      5-min Rain = 0
KST3 180951Z 20014KT 26/16 A2994 RMK A01 T02560159  RH  055%=      5-min Rain = 0
KST3 180952Z 20014G19KT 26/16 A2994 RMK A01 T02550159  RH  055%=      5-min Rain = 0
KST3 180953Z 20015KT 26/16 A2994 RMK A01 T02550160  RH  055%=      5-min Rain = 0
KST3 180954Z 20015KT 26/16 A2994 RMK A01 T02550160  RH  055%=      5-min Rain = 0
KST3 180955Z 20013KT 26/16 A2994 RMK A01 T02550160  RH  055%=      5-min Rain = 0
KST3 180956Z 20014KT 26/16 A2994 RMK A01 T02550160  RH  056%=      5-min Rain = 0
KST3 180957Z 20014KT 26/16 A2994 RMK A01 T02550160  RH  056%=      5-min Rain = 0
KST3 180958Z 20017KT 26/16 A2994 RMK A01 T02550160  RH  056%=      5-min Rain = 0
KST3 180959Z 20016KT 26/16 A2994 RMK A01 T02550160  RH  056%=      5-min Rain = 0
KST3 181000Z 20013KT 26/16 A2994 RMK A01 T02550161  RH  056%=      5-min Rain = 0
KST3 181001Z 20012G18KT 26/16 A2994 RMK A01 T02550160  RH  056%=      5-min Rain = 0
KST3 181002Z 20014KT 25/16 A2994 RMK A01 T02540161  RH  056%=      5-min Rain = 0
KST3 181003Z 20015KT 25/16 A2994 RMK A01 T02540161  RH  056%=      5-min Rain = 0
KST3 181004Z 20013G18KT 25/16 A2994 RMK A01 T02540161  RH  056%=      5-min Rain = 0
KST3 181005Z 20015KT 25/16 A2994 RMK A01 T02530161  RH  056%=      5-min Rain = 0
KST3 181006Z 20014KT 25/16 A2994 RMK A01 T02540161  RH  056%=      5-min Rain = 0
KST3 181007Z 20015KT 25/16 A2994 RMK A01 T02540161  RH  056%=      5-min Rain = 0
KST3 181008Z 20013KT 25/16 A2994 RMK A01 T02540161  RH  057%=      5-min Rain = 0
KST3 181009Z 20014KT 25/16 A2994 RMK A01 T02540162  RH  057%=      5-min Rain = 0
KST3 181010Z 20015KT 25/16 A2994 RMK A01 T02530161  RH  057%=      5-min Rain = 0
KST3 181011Z 20013KT 25/16 A2994 RMK A01 T02540161  RH  057%=      5-min Rain = 0
KST3 181012Z 20016KT 25/16 A2995 RMK A01 T02530161  RH  057%=      5-min Rain = 0
KST3 181013Z 20015KT 25/16 A2995 RMK A01 T02540162  RH  057%=      5-min Rain = 0
KST3 181014Z 20014KT 25/16 A2995 RMK A01 T02540162  RH  057%=      5-min Rain = 0
KST3 181015Z 20013KT 25/16 A2995 RMK A01 T02540162  RH  057%=      5-min Rain = 0
KST3 181016Z 20015KT 25/16 A2995 RMK A01 T02530162  RH  057%=      5-min Rain = 0
KST3 181017Z 21013KT 25/16 A2995 RMK A01 T02530162  RH  057%=      5-min Rain = 0
KST3 181018Z 21013KT 25/16 A2995 RMK A01 T02530162  RH  057%=      5-min Rain = 0
KST3 181019Z 20013KT 25/16 A2995 RMK A01 T02520162  RH  057%=      5-min Rain = 0
KST3 181020Z 20014KT 25/16 A2995 RMK A01 T02520162  RH  058%=      5-min Rain = 0
KST3 181021Z 20014KT 25/16 A2995 RMK A01 T02510162  RH  058%=      5-min Rain = 0
KST3 181022Z 20013KT 25/16 A2995 RMK A01 T02520162  RH  057%=      5-min Rain = 0
KST3 181023Z 20014KT 25/16 A2995 RMK A01 T02520162  RH  058%=      5-min Rain = 0
KST3 181024Z 20013KT 25/16 A2995 RMK A01 T02520162  RH  058%=      5-min Rain = 0
KST3 181025Z 20014KT 25/16 A2995 RMK A01 T02520163  RH  058%=      5-min Rain = 0
KST3 181026Z 20013KT 25/16 A2995 RMK A01 T02520163  RH  058%=      5-min Rain = 0
KST3 181027Z 20013KT 25/16 A2995 RMK A01 T02510163  RH  058%=      5-min Rain = 0
KST3 181028Z 20013KT 25/16 A2995 RMK A01 T02510163  RH  058%=      5-min Rain = 0
KST3 181029Z 20011KT 25/16 A2995 RMK A01 T02510162  RH  058%=      5-min Rain = 0
KST3 181030Z 20011KT 25/16 A2995 RMK A01 T02500163  RH  058%=      5-min Rain = 0
KST3 181031Z 20011KT 25/16 A2995 RMK A01 T02490163  RH  058%=      5-min Rain = 0
KST3 181032Z 20012KT 25/16 A2995 RMK A01 T02490163  RH  059%=      5-min Rain = 0
KST3 181033Z 20013KT 25/16 A2995 RMK A01 T02490163  RH  059%=      5-min Rain = 0
KST3 181034Z 20011KT 25/16 A2995 RMK A01 T02490163  RH  059%=      5-min Rain = 0
KST3 181035Z 20013KT 25/16 A2995 RMK A01 T02490163  RH  059%=      5-min Rain = 0
KST3 181036Z 20012KT 25/16 A2995 RMK A01 T02490163  RH  059%=      5-min Rain = 0
KST3 181037Z 20012KT 25/16 A2995 RMK A01 T02490163  RH  059%=      5-min Rain = 0
KST3 181038Z 20011KT 25/16 A2995 RMK A01 T02490163  RH  059%=      5-min Rain = 0
KST3 181039Z 20013KT 25/16 A2995 RMK A01 T02490163  RH  059%=      5-min Rain = 0
KST3 181040Z 20013KT 25/16 A2995 RMK A01 T02490163  RH  059%=      5-min Rain = 0
KST3 181041Z 20013KT 25/16 A2995 RMK A01 T02490163  RH  059%=      5-min Rain = 0
KST3 181042Z 20012KT 25/16 A2995 RMK A01 T02490163  RH  059%=      5-min Rain = 0
KST3 181043Z 20014KT 25/16 A2995 RMK A01 T02480163  RH  059%=      5-min Rain = 0
KST3 181044Z 20013KT 25/16 A2995 RMK A01 T02490163  RH  059%=      5-min Rain = 0
KST3 181045Z 20011KT 25/16 A2995 RMK A01 T02490163  RH  059%=      5-min Rain = 0
KST3 181046Z 19011KT 25/16 A2995 RMK A01 T02480163  RH  059%=      5-min Rain = 0
KST3 181047Z 20012KT 25/16 A2995 RMK A01 T02480163  RH  059%=      5-min Rain = 0
KST3 181048Z 20012KT 25/16 A2995 RMK A01 T02480163  RH  059%=      5-min Rain = 0
KST3 181049Z 20012KT 25/16 A2995 RMK A01 T02470163  RH  060%=      5-min Rain = 0
KST3 181050Z 20012KT 25/16 A2995 RMK A01 T02470164  RH  060%=      5-min Rain = 0
KST3 181051Z 20012KT 25/16 A2995 RMK A01 T02470163  RH  060%=      5-min Rain = 0
KST3 181052Z 20012KT 25/16 A2995 RMK A01 T02460163  RH  060%=      5-min Rain = 0
KST3 181053Z 19012KT 25/16 A2995 RMK A01 T02460163  RH  060%=      5-min Rain = 0
KST3 181054Z 19012KT 25/16 A2995 RMK A01 T02460164  RH  060%=      5-min Rain = 0
KST3 181055Z 20013KT 25/16 A2995 RMK A01 T02460163  RH  060%=      5-min Rain = 0
KST3 181056Z 20012KT 25/16 A2995 RMK A01 T02460163  RH  060%=      5-min Rain = 0
KST3 181057Z 19013KT 25/16 A2995 RMK A01 T02460163  RH  060%=      5-min Rain = 0
KST3 181058Z 20013KT 25/16 A2995 RMK A01 T02460164  RH  060%=      5-min Rain = 0
KST3 181059Z 20013KT 25/16 A2995 RMK A01 T02460164  RH  060%=      5-min Rain = 0
KST3 181100Z 20013KT 25/16 A2995 RMK A01 T02460164  RH  060%=      5-min Rain = 0
KST3 181101Z 20013KT 25/16 A2995 RMK A01 T02460164  RH  060%=      5-min Rain = 0
KST3 181102Z 19014KT 25/16 A2995 RMK A01 T02460164  RH  060%=      5-min Rain = 0
KST3 181103Z 20013KT 25/16 A2995 RMK A01 T02460164  RH  060%=      5-min Rain = 0
KST3 181104Z 19015KT 25/16 A2995 RMK A01 T02460164  RH  060%=      5-min Rain = 0
KST3 181105Z 20013KT 25/16 A2995 RMK A01 T02460164  RH  060%=      5-min Rain = 0
KST3 181106Z 19014KT 25/16 A2995 RMK A01 T02460164  RH  060%=      5-min Rain = 0
KST3 181107Z 20015KT 25/16 A2995 RMK A01 T02460164  RH  060%=      5-min Rain = 0
KST3 181108Z 20014KT 25/16 A2995 RMK A01 T02460164  RH  060%=      5-min Rain = 0
KST3 181109Z 19012KT 25/17 A2995 RMK A01 T02460165  RH  060%=      5-min Rain = 0
KST3 181110Z 20013KT 25/17 A2995 RMK A01 T02460165  RH  060%=      5-min Rain = 0
KST3 181111Z 20015G20KT 25/17 A2995 RMK A01 T02460165  RH  061%=      5-min Rain = 0
KST3 181112Z 20015KT 25/17 A2995 RMK A01 T02460165  RH  061%=      5-min Rain = 0
KST3 181113Z 20013G18KT 25/17 A2995 RMK A01 T02470165  RH  060%=      5-min Rain = 0
KST3 181114Z 20014KT 25/17 A2995 RMK A01 T02470165  RH  060%=      5-min Rain = 0
KST3 181115Z 20016KT 25/17 A2995 RMK A01 T02470165  RH  060%=      5-min Rain = 0
KST3 181116Z 20014KT 25/17 A2995 RMK A01 T02470165  RH  060%=      5-min Rain = 0
KST3 181117Z 20013KT 25/17 A2995 RMK A01 T02480165  RH  060%=      5-min Rain = 0
KST3 181118Z 20014KT 25/17 A2995 RMK A01 T02470165  RH  060%=      5-min Rain = 0
KST3 181119Z 20014KT 25/17 A2995 RMK A01 T02470165  RH  060%=      5-min Rain = 0
KST3 181120Z 20014KT 25/17 A2995 RMK A01 T02470165  RH  060%=      5-min Rain = 0
KST3 181121Z 20014KT 25/17 A2995 RMK A01 T02470165  RH  060%=      5-min Rain = 0
KST3 181122Z 20014KT 25/17 A2995 RMK A01 T02470165  RH  060%=      5-min Rain = 0
KST3 181123Z 20013KT 25/17 A2995 RMK A01 T02470165  RH  060%=      5-min Rain = 0
KST3 181124Z 20014KT 25/17 A2995 RMK A01 T02470165  RH  060%=      5-min Rain = 0
KST3 181125Z 19013KT 25/17 A2995 RMK A01 T02470165  RH  060%=      5-min Rain = 0
KST3 181126Z 19012G17KT 25/17 A2995 RMK A01 T02470165  RH  061%=      5-min Rain = 0
KST3 181127Z 20013KT 25/17 A2995 RMK A01 T02460165  RH  061%=      5-min Rain = 0
KST3 181128Z 20012KT 25/17 A2995 RMK A01 T02460165  RH  061%=      5-min Rain = 0
KST3 181129Z 20012KT 25/17 A2995 RMK A01 T02460165  RH  061%=      5-min Rain = 0
KST3 181130Z 20012KT 25/17 A2995 RMK A01 T02450165  RH  061%=      5-min Rain = 0
KST3 181131Z 20014KT 25/17 A2995 RMK A01 T02450165  RH  061%=      5-min Rain = 0
KST3 181132Z 20013KT 25/17 A2995 RMK A01 T02450166  RH  061%=      5-min Rain = 0
KST3 181133Z 20012KT 25/17 A2995 RMK A01 T02450165  RH  061%=      5-min Rain = 0
KST3 181134Z 20013KT 25/17 A2995 RMK A01 T02450166  RH  061%=      5-min Rain = 0
KST3 181135Z 19012KT 25/17 A2995 RMK A01 T02450166  RH  061%=      5-min Rain = 0
KST3 181136Z 20014KT 24/17 A2995 RMK A01 T02440165  RH  061%=      5-min Rain = 0
KST3 181137Z 20013KT 25/17 A2995 RMK A01 T02450165  RH  061%=      5-min Rain = 0
KST3 181138Z 20012KT 25/17 A2995 RMK A01 T02450165  RH  061%=      5-min Rain = 0
KST3 181139Z 20011KT 25/17 A2995 RMK A01 T02450166  RH  061%=      5-min Rain = 0
KST3 181140Z 20011KT 24/17 A2995 RMK A01 T02440166  RH  062%=      5-min Rain = 0
KST3 181141Z 20013KT 24/17 A2995 RMK A01 T02430166  RH  062%=      5-min Rain = 0
KST3 181142Z 20014KT 24/17 A2995 RMK A01 T02440166  RH  062%=      5-min Rain = 0
KST3 181143Z 20012KT 24/17 A2995 RMK A01 T02440165  RH  062%=      5-min Rain = 0
KST3 181144Z 20012KT 24/17 A2995 RMK A01 T02440166  RH  062%=      5-min Rain = 0
KST3 181145Z 20013KT 24/17 A2995 RMK A01 T02440166  RH  062%=      5-min Rain = 0
KST3 181146Z 20012KT 24/17 A2995 RMK A01 T02440166  RH  062%=      5-min Rain = 0
KST3 181147Z 20014KT 24/17 A2995 RMK A01 T02440166  RH  062%=      5-min Rain = 0
KST3 181148Z 19014KT 24/17 A2995 RMK A01 T02440166  RH  062%=      5-min Rain = 0
KST3 181149Z 19013KT 24/17 A2995 RMK A01 T02440166  RH  062%=      5-min Rain = 0
KST3 181150Z 20012G17KT 24/17 A2995 RMK A01 T02440166  RH  062%=      5-min Rain = 0
KST3 181151Z 20012KT 24/17 A2995 RMK A01 T02440166  RH  062%=      5-min Rain = 0
KST3 181152Z 20013G18KT 24/17 A2995 RMK A01 T02430166  RH  062%=      5-min Rain = 0
KST3 181153Z 19014KT 24/17 A2995 RMK A01 T02430166  RH  062%=      5-min Rain = 0
KST3 181154Z 20013KT 24/17 A2995 RMK A01 T02440166  RH  062%=      5-min Rain = 0
KST3 181155Z 19014KT 24/17 A2995 RMK A01 T02430166  RH  062%=      5-min Rain = 0
KST3 181156Z 19013KT 24/17 A2995 RMK A01 T02440166  RH  062%=      5-min Rain = 0
KST3 181157Z 19014KT 24/17 A2995 RMK A01 T02440166  RH  062%=      5-min Rain = 0
KST3 181158Z 20013KT 24/17 A2995 RMK A01 T02440166  RH  062%=      5-min Rain = 0
KST3 181159Z 20013KT 24/17 A2995 RMK A01 T02440166  RH  062%=      5-min Rain = 0
KST3 181200Z 20013KT 24/17 A2995 RMK A01 T02440166  RH  062%=      5-min Rain = 0
KST3 181201Z 19012KT 24/17 A2995 RMK A01 T02440166  RH  062%=      5-min Rain = 0
KST3 181202Z 20013KT 24/17 A2995 RMK A01 T02440166  RH  062%=      5-min Rain = 0
KST3 181203Z 20013KT 24/17 A2995 RMK A01 T02430166  RH  062%=      5-min Rain = 0
KST3 181204Z 20013G18KT 24/17 A2995 RMK A01 T02430166  RH  062%=      5-min Rain = 0
KST3 181205Z 20014KT 24/17 A2995 RMK A01 T02430166  RH  062%=      5-min Rain = 0
KST3 181206Z 20013KT 24/17 A2995 RMK A01 T02430166  RH  062%=      5-min Rain = 0
KST3 181207Z 20014KT 24/17 A2995 RMK A01 T02440166  RH  062%=      5-min Rain = 0
KST3 181208Z 20015KT 24/17 A2995 RMK A01 T02440166  RH  062%=      5-min Rain = 0
KST3 181209Z 19016KT 24/17 A2995 RMK A01 T02440166  RH  062%=      5-min Rain = 0
KST3 181210Z 20014KT 24/17 A2995 RMK A01 T02440166  RH  062%=      5-min Rain = 0
KST3 181211Z 20015KT 24/17 A2995 RMK A01 T02440166  RH  062%=      5-min Rain = 0
KST3 181212Z 20015KT 24/17 A2995 RMK A01 T02440167  RH  062%=      5-min Rain = 0
KST3 181213Z 20016KT 24/17 A2995 RMK A01 T02440167  RH  062%=      5-min Rain = 0
KST3 181214Z 20015KT 24/17 A2995 RMK A01 T02440167  RH  062%=      5-min Rain = 0
KST3 181215Z 20015KT 24/17 A2995 RMK A01 T02440167  RH  062%=      5-min Rain = 0
KST3 181216Z 20014KT 25/17 A2995 RMK A01 T02450167  RH  062%=      5-min Rain = 0
KST3 181217Z 20015KT 24/17 A2995 RMK A01 T02440167  RH  062%=      5-min Rain = 0
KST3 181218Z 20016G21KT 24/17 A2995 RMK A01 T02440167  RH  062%=      5-min Rain = 0
KST3 181219Z 20016G21KT 24/17 A2995 RMK A01 T02440167  RH  062%=      5-min Rain = 0
KST3 181220Z 20014KT 24/17 A2995 RMK A01 T02440167  RH  062%=      5-min Rain = 0
KST3 181221Z 20015KT 24/17 A2995 RMK A01 T02440167  RH  062%=      5-min Rain = 0
KST3 181222Z 20014KT 24/17 A2995 RMK A01 T02440167  RH  062%=      5-min Rain = 0
KST3 181223Z 20013KT 24/17 A2995 RMK A01 T02440167  RH  062%=      5-min Rain = 0
KST3 181224Z 20013KT 24/17 A2995 RMK A01 T02440167  RH  062%=      5-min Rain = 0
KST3 181225Z 20014KT 24/17 A2995 RMK A01 T02440167  RH  062%=      5-min Rain = 0
KST3 181226Z 20014KT 24/17 A2995 RMK A01 T02440167  RH  062%=      5-min Rain = 0
KST3 181227Z 20014G19KT 24/17 A2995 RMK A01 T02440167  RH  062%=      5-min Rain = 0
KST3 181228Z 20012G17KT 24/17 A2995 RMK A01 T02440167  RH  062%=      5-min Rain = 0
KST3 181229Z 20015KT 25/17 A2995 RMK A01 T02450167  RH  062%=      5-min Rain = 0
KST3 181230Z 20016KT 25/17 A2995 RMK A01 T02450167  RH  062%=      5-min Rain = 0
KST3 181231Z 20015KT 25/17 A2995 RMK A01 T02460168  RH  062%=      5-min Rain = 0
KST3 181232Z 20015KT 25/17 A2995 RMK A01 T02460168  RH  062%=      5-min Rain = 0
KST3 181233Z 20014KT 25/17 A2995 RMK A01 T02460167  RH  061%=      5-min Rain = 0
KST3 181234Z 20012G17KT 25/17 A2995 RMK A01 T02460168  RH  062%=      5-min Rain = 0
KST3 181235Z 20014KT 25/17 A2995 RMK A01 T02460168  RH  062%=      5-min Rain = 0
KST3 181236Z 20013G18KT 25/17 A2995 RMK A01 T02460168  RH  062%=      5-min Rain = 0
KST3 181237Z 20013KT 25/17 A2995 RMK A01 T02460168  RH  062%=      5-min Rain = 0
KST3 181238Z 20013KT 25/17 A2995 RMK A01 T02460168  RH  062%=      5-min Rain = 0
KST3 181239Z 20016KT 25/17 A2995 RMK A01 T02460168  RH  062%=      5-min Rain = 0
KST3 181240Z 20014KT 25/17 A2995 RMK A01 T02470168  RH  061%=      5-min Rain = 0
KST3 181241Z 20014KT 25/17 A2995 RMK A01 T02470168  RH  062%=      5-min Rain = 0
KST3 181242Z 20014KT 25/17 A2995 RMK A01 T02470168  RH  061%=      5-min Rain = 0
KST3 181243Z 21015KT 25/17 A2995 RMK A01 T02470168  RH  061%=      5-min Rain = 0
KST3 181244Z 20015KT 25/17 A2995 RMK A01 T02480168  RH  061%=      5-min Rain = 0
KST3 181245Z 20012KT 25/17 A2995 RMK A01 T02480168  RH  061%=      5-min Rain = 0
KST3 181246Z 20014KT 25/17 A2995 RMK A01 T02480169  RH  061%=      5-min Rain = 0
KST3 181247Z 20011KT 25/17 A2995 RMK A01 T02480169  RH  061%=      5-min Rain = 0
KST3 181248Z 20012KT 25/17 A2995 RMK A01 T02480169  RH  062%=      5-min Rain = 0
KST3 181249Z 20013KT 25/17 A2995 RMK A01 T02480169  RH  061%=      5-min Rain = 0
KST3 181250Z 20014KT 25/17 A2995 RMK A01 T02480169  RH  061%=      5-min Rain = 0
KST3 181251Z 20014KT 25/17 A2995 RMK A01 T02490169  RH  061%=      5-min Rain = 0
KST3 181252Z 20015KT 25/17 A2995 RMK A01 T02490169  RH  061%=      5-min Rain = 0
KST3 181253Z 20016KT 25/17 A2995 RMK A01 T02500169  RH  061%=      5-min Rain = 0
KST3 181254Z 20012KT 25/17 A2995 RMK A01 T02500169  RH  061%=      5-min Rain = 0
KST3 181255Z 20017KT 25/17 A2995 RMK A01 T02500169  RH  061%=      5-min Rain = 0
KST3 181256Z 20014KT 25/17 A2995 RMK A01 T02500169  RH  061%=      5-min Rain = 0
KST3 181257Z 20014KT 25/17 A2995 RMK A01 T02510170  RH  061%=      5-min Rain = 0
KST3 181258Z 20015KT 25/17 A2995 RMK A01 T02510170  RH  061%=      5-min Rain = 0
KST3 181259Z 20017KT 25/17 A2995 RMK A01 T02510169  RH  061%=      5-min Rain = 0
KST3 181300Z 21015KT 25/17 A2995 RMK A01 T02510170  RH  061%=      5-min Rain = 0
KST3 181301Z 20016G21KT 25/17 A2995 RMK A01 T02520170  RH  061%=      5-min Rain = 0
KST3 181302Z 20016KT 25/17 A2995 RMK A01 T02520169  RH  060%=      5-min Rain = 0
KST3 181303Z 20015G21KT 25/17 A2995 RMK A01 T02530170  RH  060%=      5-min Rain = 0
KST3 181304Z 20015KT 25/17 A2995 RMK A01 T02530170  RH  060%=      5-min Rain = 0
KST3 181305Z 20018KT 25/17 A2995 RMK A01 T02530170  RH  060%=      5-min Rain = 0
KST3 181306Z 20017KT 25/17 A2995 RMK A01 T02530170  RH  060%=      5-min Rain = 0
KST3 181307Z 20015KT 25/17 A2995 RMK A01 T02530170  RH  060%=      5-min Rain = 0
KST3 181308Z 20013KT 25/17 A2995 RMK A01 T02540171  RH  060%=      5-min Rain = 0
KST3 181309Z 20017KT 25/17 A2995 RMK A01 T02540170  RH  060%=      5-min Rain = 0
KST3 181310Z 20016KT 26/17 A2995 RMK A01 T02550171  RH  060%=      5-min Rain = 0
KST3 181311Z 20017G22KT 26/17 A2995 RMK A01 T02550170  RH  059%=      5-min Rain = 0
KST3 181312Z 20015KT 26/17 A2995 RMK A01 T02560171  RH  059%=      5-min Rain = 0
KST3 181313Z 20017G23KT 26/17 A2995 RMK A01 T02560171  RH  059%=      5-min Rain = 0
KST3 181314Z 20015KT 26/17 A2995 RMK A01 T02560170  RH  059%=      5-min Rain = 0
KST3 181315Z 20014KT 26/17 A2995 RMK A01 T02560171  RH  059%=      5-min Rain = 0
KST3 181316Z 20015KT 26/17 A2995 RMK A01 T02570172  RH  059%=      5-min Rain = 0
KST3 181317Z 20019KT 26/17 A2995 RMK A01 T02570171  RH  059%=      5-min Rain = 0
KST3 181318Z 20018G23KT 26/17 A2995 RMK A01 T02580171  RH  059%=      5-min Rain = 0
KST3 181319Z 21014G19KT 26/17 A2995 RMK A01 T02580172  RH  059%=      5-min Rain = 0
KST3 181320Z 20017KT 26/17 A2995 RMK A01 T02580172  RH  059%=      5-min Rain = 0
KST3 181321Z 20016KT 26/17 A2995 RMK A01 T02590171  RH  058%=      5-min Rain = 0
KST3 181322Z 21018KT 26/17 A2995 RMK A01 T02590172  RH  058%=      5-min Rain = 0
KST3 181323Z 20014KT 26/17 A2995 RMK A01 T02600172  RH  058%=      5-min Rain = 0
KST3 181324Z 20017KT 26/17 A2995 RMK A01 T02600172  RH  058%=      5-min Rain = 0
KST3 181325Z 20019KT 26/17 A2995 RMK A01 T02610172  RH  058%=      5-min Rain = 0
KST3 181326Z 21018KT 26/17 A2995 RMK A01 T02610171  RH  058%=      5-min Rain = 0
KST3 181327Z 20017G23KT 26/17 A2995 RMK A01 T02620172  RH  058%=      5-min Rain = 0
KST3 181328Z 21015KT 26/17 A2995 RMK A01 T02620172  RH  058%=      5-min Rain = 0
KST3 181329Z 20018G24KT 26/17 A2995 RMK A01 T02630173  RH  058%=      5-min Rain = 0
KST3 181330Z 21019G24KT 26/17 A2995 RMK A01 T02630171  RH  057%=      5-min Rain = 0
KST3 181331Z 20018KT 26/17 A2995 RMK A01 T02630172  RH  057%=      5-min Rain = 0
KST3 181332Z 21017KT 26/17 A2995 RMK A01 T02630172  RH  057%=      5-min Rain = 0
KST3 181333Z 21021KT 26/17 A2995 RMK A01 T02640172  RH  057%=      5-min Rain = 0
KST3 181334Z 21019KT 26/17 A2995 RMK A01 T02640171  RH  057%=      5-min Rain = 0
KST3 181335Z 20019KT 26/17 A2995 RMK A01 T02640171  RH  057%=      5-min Rain = 0
KST3 181336Z 21016G21KT 26/17 A2995 RMK A01 T02640172  RH  057%=      5-min Rain = 0
KST3 181337Z 21019G24KT 27/17 A2995 RMK A01 T02650172  RH  057%=      5-min Rain = 0
KST3 181338Z 21019KT 27/17 A2995 RMK A01 T02650172  RH  056%=      5-min Rain = 0
KST3 181339Z 21016G21KT 27/17 A2996 RMK A01 T02660173  RH  057%=      5-min Rain = 0
KST3 181340Z 21019KT 27/17 A2996 RMK A01 T02660172  RH  056%=      5-min Rain = 0
KST3 181341Z 21017KT 27/17 A2996 RMK A01 T02660172  RH  056%=      5-min Rain = 0
KST3 181342Z 21018G23KT 27/17 A2996 RMK A01 T02650173  RH  057%=      5-min Rain = 0
KST3 181343Z 20022KT 26/17 A2995 RMK A01 T02640171  RH  057%=      5-min Rain = 0
KST3 181344Z 20022KT 26/17 A2996 RMK A01 T02630171  RH  057%=      5-min Rain = 0
KST3 181345Z 21016G23KT 26/17 A2996 RMK A01 T02620171  RH  057%=      5-min Rain = 0
KST3 181346Z 21017KT 26/17 A2996 RMK A01 T02620173  RH  058%=      5-min Rain = 0
KST3 181347Z 21019KT 26/17 A2996 RMK A01 T02620172  RH  057%=      5-min Rain = 0
KST3 181348Z 20019G25KT 26/17 A2996 RMK A01 T02630171  RH  057%=      5-min Rain = 0
KST3 181349Z 21019G24KT 26/17 A2995 RMK A01 T02630171  RH  057%=      5-min Rain = 0
KST3 181350Z 21018KT 26/17 A2995 RMK A01 T02640171  RH  057%=      5-min Rain = 0
KST3 181351Z 21019G24KT 26/17 A2995 RMK A01 T02640171  RH  057%=      5-min Rain = 0
KST3 181352Z 22019KT 26/17 A2995 RMK A01 T02640171  RH  057%=      5-min Rain = 0
KST3 181353Z 21017KT 26/17 A2996 RMK A01 T02640172  RH  057%=      5-min Rain = 0
KST3 181354Z 21016KT 27/17 A2996 RMK A01 T02650172  RH  057%=      5-min Rain = 0
KST3 181355Z 21016KT 27/17 A2996 RMK A01 T02670174  RH  057%=      5-min Rain = 0
KST3 181356Z 22019KT 27/17 A2996 RMK A01 T02690173  RH  055%=      5-min Rain = 0
KST3 181357Z 21018G23KT 27/17 A2995 RMK A01 T02700173  RH  055%=      5-min Rain = 0
KST3 181358Z 21021KT 27/17 A2995 RMK A01 T02710172  RH  055%=      5-min Rain = 0
KST3 181359Z 22021KT 27/17 A2995 RMK A01 T02700171  RH  055%=      5-min Rain = 0
KST3 181400Z 22021KT 27/17 A2996 RMK A01 T02700172  RH  055%=      5-min Rain = 0
KST3 181401Z 22021KT 27/17 A2996 RMK A01 T02700172  RH  055%=      5-min Rain = 0
KST3 181402Z 22021KT 27/17 A2996 RMK A01 T02710172  RH  055%=      5-min Rain = 0
KST3 181403Z 22022KT 27/17 A2996 RMK A01 T02710171  RH  054%=      5-min Rain = 0
KST3 181404Z 22020KT 27/17 A2996 RMK A01 T02700172  RH  055%=      5-min Rain = 0
KST3 181405Z 21021KT 27/17 A2996 RMK A01 T02700172  RH  055%=      5-min Rain = 0
KST3 181406Z 21020KT 27/17 A2995 RMK A01 T02700172  RH  055%=      5-min Rain = 0
KST3 181407Z 21019KT 27/17 A2995 RMK A01 T02700172  RH  055%=      5-min Rain = 0
KST3 181408Z 21019KT 27/17 A2996 RMK A01 T02700173  RH  055%=      5-min Rain = 0
KST3 181409Z 21020KT 27/17 A2995 RMK A01 T02710173  RH  055%=      5-min Rain = 0
KST3 181410Z 21018KT 27/17 A2995 RMK A01 T02720172  RH  054%=      5-min Rain = 0
KST3 181411Z 21017KT 27/17 A2995 RMK A01 T02720173  RH  055%=      5-min Rain = 0
KST3 181412Z 21019KT 27/17 A2995 RMK A01 T02740174  RH  054%=      5-min Rain = 0
KST3 181413Z 21019KT 28/17 A2995 RMK A01 T02750173  RH  054%=      5-min Rain = 0
KST3 181414Z 22020KT 28/17 A2995 RMK A01 T02750172  RH  054%=      5-min Rain = 0
KST3 181415Z 22016KT 27/17 A2995 RMK A01 T02740172  RH  053%=      5-min Rain = 0
KST3 181416Z 22017KT 28/17 A2995 RMK A01 T02750174  RH  054%=      5-min Rain = 0
KST3 181417Z 21017G22KT 28/18 A2995 RMK A01 T02780175  RH  053%=      5-min Rain = 0
KST3 181418Z 22016G21KT 28/18 A2995 RMK A01 T02790175  RH  053%=      5-min Rain = 0
KST3 181419Z 21019KT 28/17 A2995 RMK A01 T02800174  RH  053%=      5-min Rain = 0
KST3 181420Z 21019KT 28/17 A2995 RMK A01 T02780172  RH  052%=      5-min Rain = 0
KST3 181421Z 20017KT 28/17 A2995 RMK A01 T02770172  RH  053%=      5-min Rain = 0
KST3 181422Z 21017KT 28/17 A2995 RMK A01 T02760173  RH  053%=      5-min Rain = 0
KST3 181423Z 21019KT 28/17 A2995 RMK A01 T02780174  RH  053%=      5-min Rain = 0
KST3 181424Z 21022KT 28/17 A2995 RMK A01 T02790171  RH  052%=      5-min Rain = 0
KST3 181425Z 21022KT 28/17 A2995 RMK A01 T02780171  RH  052%=      5-min Rain = 0
KST3 181426Z 20019KT 28/17 A2995 RMK A01 T02780171  RH  052%=      5-min Rain = 0
KST3 181427Z 21019KT 28/17 A2995 RMK A01 T02780172  RH  053%=      5-min Rain = 0
KST3 181428Z 21016KT 28/17 A2995 RMK A01 T02800173  RH  052%=      5-min Rain = 0
KST3 181429Z 21018KT 28/18 A2995 RMK A01 T02810175  RH  052%=      5-min Rain = 0
KST3 181430Z 21018G23KT 28/17 A2995 RMK A01 T02820172  RH  051%=      5-min Rain = 0
KST3 181431Z 21018KT 28/17 A2995 RMK A01 T02820172  RH  051%=      5-min Rain = 0
KST3 181432Z 21019KT 28/17 A2995 RMK A01 T02810172  RH  051%=      5-min Rain = 0
KST3 181433Z 21020KT 28/17 A2995 RMK A01 T02810172  RH  051%=      5-min Rain = 0
KST3 181434Z 21019KT 28/17 A2995 RMK A01 T02810172  RH  051%=      5-min Rain = 0
KST3 181435Z 21020KT 28/17 A2995 RMK A01 T02810172  RH  052%=      5-min Rain = 0
KST3 181436Z 21016G21KT 28/17 A2995 RMK A01 T02800172  RH  052%=      5-min Rain = 0
KST3 181437Z 21018KT 28/17 A2995 RMK A01 T02810174  RH  052%=      5-min Rain = 0
KST3 181438Z 21016KT 28/17 A2995 RMK A01 T02800173  RH  052%=      5-min Rain = 0
KST3 181439Z 22018KT 28/17 A2995 RMK A01 T02790173  RH  053%=      5-min Rain = 0
KST3 181440Z 22019KT 28/17 A2995 RMK A01 T02790172  RH  052%=      5-min Rain = 0
KST3 181441Z 22018KT 28/17 A2995 RMK A01 T02780172  RH  053%=      5-min Rain = 0
KST3 181442Z 21019KT 28/17 A2995 RMK A01 T02790172  RH  052%=      5-min Rain = 0
KST3 181443Z 22015G21KT 28/17 A2995 RMK A01 T02790173  RH  052%=      5-min Rain = 0
KST3 181444Z 22016KT 28/17 A2995 RMK A01 T02800174  RH  053%=      5-min Rain = 0
KST3 181445Z 22016KT 28/17 A2995 RMK A01 T02790174  RH  053%=      5-min Rain = 0
KST3 181446Z 22017KT 28/18 A2995 RMK A01 T02780175  RH  053%=      5-min Rain = 0
KST3 181447Z 22017KT 28/18 A2995 RMK A01 T02800175  RH  053%=      5-min Rain = 0
KST3 181448Z 22018KT 28/17 A2995 RMK A01 T02810174  RH  052%=      5-min Rain = 0
KST3 181449Z 22019KT 28/17 A2995 RMK A01 T02810174  RH  052%=      5-min Rain = 0
KST3 181450Z 22016KT 28/17 A2995 RMK A01 T02820174  RH  052%=      5-min Rain = 0
KST3 181451Z 21016KT 28/18 A2995 RMK A01 T02830175  RH  052%=      5-min Rain = 0
KST3 181452Z 21015KT 28/18 A2995 RMK A01 T02840176  RH  052%=      5-min Rain = 0
KST3 181453Z 21015G20KT 29/18 A2995 RMK A01 T02860177  RH  052%=      5-min Rain = 0
KST3 181454Z 22018KT 29/18 A2995 RMK A01 T02880175  RH  051%=      5-min Rain = 0
KST3 181455Z 22016KT 29/18 A2995 RMK A01 T02880175  RH  051%=      5-min Rain = 0
KST3 181456Z 22019KT 29/17 A2995 RMK A01 T02870174  RH  050%=      5-min Rain = 0
KST3 181457Z 22017KT 29/18 A2995 RMK A01 T02870175  RH  051%=      5-min Rain = 0
KST3 181458Z 21016KT 29/18 A2995 RMK A01 T02880177  RH  051%=      5-min Rain = 0
KST3 181459Z 21017KT 29/17 A2995 RMK A01 T02890174  RH  050%=      5-min Rain = 0
KST3 181500Z 21016KT 29/17 A2995 RMK A01 T02890172  RH  049%=      5-min Rain = 0
KST3 181501Z 20017KT 29/17 A2995 RMK A01 T02900172  RH  049%=      5-min Rain = 0
KST3 181502Z 21018KT 29/17 A2995 RMK A01 T02900172  RH  049%=      5-min Rain = 0
KST3 181503Z 22016KT 29/18 A2995 RMK A01 T02900175  RH  050%=      5-min Rain = 0
KST3 181504Z 21018KT 29/17 A2995 RMK A01 T02900174  RH  049%=      5-min Rain = 0
KST3 181505Z 22019KT 29/17 A2995 RMK A01 T02910173  RH  049%=      5-min Rain = 0
KST3 181506Z 22019KT 29/17 A2995 RMK A01 T02910174  RH  049%=      5-min Rain = 0
KST3 181507Z 22017KT 29/17 A2995 RMK A01 T02920174  RH  049%=      5-min Rain = 0
KST3 181508Z 21018KT 29/17 A2995 RMK A01 T02910173  RH  049%=      5-min Rain = 0
KST3 181509Z 22018KT 29/17 A2995 RMK A01 T02920173  RH  049%=      5-min Rain = 0
KST3 181510Z 22020KT 29/17 A2994 RMK A01 T02910173  RH  049%=      5-min Rain = 0
KST3 181511Z 22019G24KT 29/17 A2995 RMK A01 T02910173  RH  049%=      5-min Rain = 0
KST3 181512Z 22017KT 29/17 A2994 RMK A01 T02910174  RH  049%=      5-min Rain = 0
KST3 181513Z 21017KT 29/18 A2994 RMK A01 T02920176  RH  050%=      5-min Rain = 0
KST3 181514Z 21018KT 29/17 A2994 RMK A01 T02940173  RH  048%=      5-min Rain = 0
KST3 181515Z 21018KT 29/17 A2994 RMK A01 T02940172  RH  048%=      5-min Rain = 0
KST3 181516Z 21019KT 29/17 A2994 RMK A01 T02940170  RH  047%=      5-min Rain = 0
KST3 181517Z 21016KT 29/17 A2994 RMK A01 T02930171  RH  048%=      5-min Rain = 0
KST3 181518Z 21015KT 29/17 A2995 RMK A01 T02930173  RH  049%=      5-min Rain = 0
KST3 181519Z 21014KT 29/18 A2995 RMK A01 T02940176  RH  049%=      5-min Rain = 0
KST3 181520Z 22014KT 30/18 A2995 RMK A01 T02970179  RH  049%=      5-min Rain = 0
KST3 181521Z 22016KT 30/18 A2994 RMK A01 T02980178  RH  048%=      5-min Rain = 0
KST3 181522Z 21017KT 30/17 A2994 RMK A01 T02990174  RH  047%=      5-min Rain = 0
KST3 181523Z 22015KT 30/17 A2994 RMK A01 T02990173  RH  047%=      5-min Rain = 0
KST3 181524Z 22018KT 30/17 A2994 RMK A01 T02990172  RH  047%=      5-min Rain = 0
KST3 181525Z 22016KT 30/17 A2994 RMK A01 T02990172  RH  046%=      5-min Rain = 0
KST3 181526Z 20013KT 30/17 A2995 RMK A01 T02980174  RH  047%=      5-min Rain = 0
KST3 181527Z 21013KT 30/18 A2995 RMK A01 T02980175  RH  048%=      5-min Rain = 0
KST3 181528Z 22013KT 30/18 A2995 RMK A01 T02990179  RH  049%=      5-min Rain = 0
KST3 181529Z 23015KT 30/18 A2994 RMK A01 T03010175  RH  047%=      5-min Rain = 0
KST3 181530Z 22015KT 30/18 A2994 RMK A01 T03000176  RH  047%=      5-min Rain = 0
KST3 181531Z 21013KT 30/18 A2994 RMK A01 T02980175  RH  047%=      5-min Rain = 0
KST3 181532Z 22013KT 30/18 A2994 RMK A01 T02980177  RH  048%=      5-min Rain = 0
KST3 181533Z 23012KT 30/18 A2994 RMK A01 T03010179  RH  048%=      5-min Rain = 0
KST3 181534Z 21016KT 30/18 A2994 RMK A01 T03030177  RH  047%=      5-min Rain = 0
KST3 181535Z 21015KT 30/17 A2994 RMK A01 T03040174  RH  046%=      5-min Rain = 0
KST3 181536Z 21014KT 30/18 A2994 RMK A01 T03040176  RH  046%=      5-min Rain = 0
KST3 181537Z 21014KT 30/18 A2994 RMK A01 T03040177  RH  047%=      5-min Rain = 0
KST3 181538Z 22012G18KT 30/18 A2994 RMK A01 T03040178  RH  047%=      5-min Rain = 0
KST3 181539Z 22016KT 31/18 A2994 RMK A01 T03050175  RH  046%=      5-min Rain = 0
KST3 181540Z 22018KT 31/17 A2994 RMK A01 T03050172  RH  045%=      5-min Rain = 0
KST3 181541Z 22016KT 31/17 A2994 RMK A01 T03060170  RH  044%=      5-min Rain = 0
KST3 181542Z 21019KT 31/17 A2994 RMK A01 T03050170  RH  044%=      5-min Rain = 0
KST3 181543Z 20019KT 30/17 A2994 RMK A01 T03040167  RH  044%=      5-min Rain = 0
KST3 181544Z 20016KT 30/17 A2994 RMK A01 T03030168  RH  044%=      5-min Rain = 0
KST3 181545Z 20017KT 30/17 A2994 RMK A01 T03030167  RH  044%=      5-min Rain = 0
KST3 181546Z 20016KT 30/17 A2994 RMK A01 T03030167  RH  044%=      5-min Rain = 0
KST3 181547Z 21013KT 30/17 A2994 RMK A01 T03030170  RH  045%=      5-min Rain = 0
KST3 181548Z 22016KT 31/17 A2994 RMK A01 T03050174  RH  045%=      5-min Rain = 0
KST3 181549Z 22018KT 31/17 A2994 RMK A01 T03050171  RH  045%=      5-min Rain = 0
KST3 181550Z 22016KT 30/17 A2994 RMK A01 T03040171  RH  045%=      5-min Rain = 0
KST3 181551Z 22015KT 30/17 A2994 RMK A01 T03040172  RH  045%=      5-min Rain = 0
KST3 181552Z 22016KT 31/17 A2994 RMK A01 T03050173  RH  045%=      5-min Rain = 0
KST3 181553Z 22018KT 31/17 A2994 RMK A01 T03060170  RH  044%=      5-min Rain = 0
KST3 181554Z 23015KT 31/17 A2994 RMK A01 T03050171  RH  045%=      5-min Rain = 0
KST3 181555Z 21014KT 31/18 A2994 RMK A01 T03050175  RH  046%=      5-min Rain = 0
KST3 181556Z 21013KT 31/17 A2994 RMK A01 T03080172  RH  044%=      5-min Rain = 0
KST3 181557Z 21012KT 31/17 A2994 RMK A01 T03070174  RH  045%=      5-min Rain = 0
KST3 181558Z 21015G20KT 31/18 A2994 RMK A01 T03100178  RH  045%=      5-min Rain = 0
KST3 181559Z 22017KT 31/17 A2994 RMK A01 T03130172  RH  043%=      5-min Rain = 0
KST3 181600Z 22012KT 31/17 A2994 RMK A01 T03110171  RH  043%=      5-min Rain = 0
KST3 181601Z 21013KT 31/17 A2994 RMK A01 T03100174  RH  044%=      5-min Rain = 0
KST3 181602Z 20011KT 31/17 A2994 RMK A01 T03110172  RH  043%=      5-min Rain = 0
KST3 181603Z 20015KT 31/17 A2994 RMK A01 T03120174  RH  044%=      5-min Rain = 0
KST3 181604Z 21015KT 31/17 A2994 RMK A01 T03120173  RH  043%=      5-min Rain = 0
KST3 181605Z 22015KT 31/17 A2994 RMK A01 T03120174  RH  044%=      5-min Rain = 0
KST3 181606Z 22018KT 31/17 A2994 RMK A01 T03130172  RH  043%=      5-min Rain = 0
KST3 181607Z 21013KT 31/17 A2994 RMK A01 T03110172  RH  043%=      5-min Rain = 0
KST3 181608Z 21017KT 31/17 A2994 RMK A01 T03110171  RH  043%=      5-min Rain = 0
KST3 181609Z 22016KT 31/17 A2994 RMK A01 T03110170  RH  043%=      5-min Rain = 0
KST3 181610Z 22014KT 31/17 A2994 RMK A01 T03120172  RH  043%=      5-min Rain = 0
KST3 181611Z 21013KT 31/17 A2994 RMK A01 T03120172  RH  043%=      5-min Rain = 0
KST3 181612Z 20013KT 31/17 A2994 RMK A01 T03130172  RH  043%=      5-min Rain = 0
KST3 181613Z 22015KT 31/17 A2994 RMK A01 T03140171  RH  042%=      5-min Rain = 0
KST3 181614Z 22016KT 31/17 A2994 RMK A01 T03140169  RH  042%=      5-min Rain = 0
KST3 181615Z 21011G18KT 31/17 A2994 RMK A01 T03140171  RH  042%=      5-min Rain = 0
KST3 181616Z 21012KT 32/18 A2994 RMK A01 T03180175  RH  042%=      5-min Rain = 0
KST3 181617Z 23015KT 32/17 A2994 RMK A01 T03200173  RH  041%=      5-min Rain = 0
KST3 181618Z 22016G21KT 32/17 A2994 RMK A01 T03200171  RH  041%=      5-min Rain = 0
KST3 181619Z 22016KT 32/17 A2994 RMK A01 T03190169  RH  041%=      5-min Rain = 0
KST3 181620Z 22016KT 32/17 A2994 RMK A01 T03180171  RH  041%=      5-min Rain = 0
KST3 181621Z 21014KT 32/17 A2994 RMK A01 T03220172  RH  041%=      5-min Rain = 0
KST3 181622Z 21015KT 33/17 A2994 RMK A01 T03250170  RH  040%=      5-min Rain = 0
KST3 181623Z 20014KT 32/17 A2994 RMK A01 T03240169  RH  039%=      5-min Rain = 0
KST3 181624Z 20016KT 32/17 A2994 RMK A01 T03230167  RH  039%=      5-min Rain = 0
KST3 181625Z 21014G19KT 32/17 A2994 RMK A01 T03220168  RH  040%=      5-min Rain = 0
KST3 181626Z 22015KT 32/17 A2994 RMK A01 T03240172  RH  040%=      5-min Rain = 0
KST3 181627Z 22016KT 32/17 A2994 RMK A01 T03230167  RH  039%=      5-min Rain = 0
KST3 181628Z 22016KT 32/17 A2994 RMK A01 T03230166  RH  039%=      5-min Rain = 0
KST3 181629Z 21013KT 32/16 A2994 RMK A01 T03230164  RH  038%=      5-min Rain = 0
KST3 181630Z 22014G20KT 32/17 A2994 RMK A01 T03220167  RH  039%=      5-min Rain = 0
KST3 181631Z 22017KT 32/16 A2994 RMK A01 T03220164  RH  039%=      5-min Rain = 0
KST3 181632Z 22017KT 32/16 A2994 RMK A01 T03200164  RH  039%=      5-min Rain = 0
KST3 181633Z 22017KT 32/17 A2994 RMK A01 T03200165  RH  039%=      5-min Rain = 0
KST3 181634Z 22017KT 32/16 A2994 RMK A01 T03210164  RH  039%=      5-min Rain = 0
KST3 181635Z 21015KT 32/16 A2994 RMK A01 T03220163  RH  038%=      5-min Rain = 0
KST3 181636Z 22014KT 32/17 A2994 RMK A01 T03210166  RH  039%=      5-min Rain = 0
KST3 181637Z 21017KT 32/17 A2994 RMK A01 T03230166  RH  039%=      5-min Rain = 0
KST3 181638Z 22018KT 32/16 A2994 RMK A01 T03240163  RH  038%=      5-min Rain = 0
KST3 181639Z 22016KT 32/16 A2994 RMK A01 T03230162  RH  038%=      5-min Rain = 0
KST3 181640Z 23016KT 32/16 A2994 RMK A01 T03230164  RH  039%=      5-min Rain = 0
KST3 181641Z 22014KT 32/16 A2994 RMK A01 T03230163  RH  038%=      5-min Rain = 0
KST3 181642Z 22016KT 32/17 A2994 RMK A01 T03240166  RH  039%=      5-min Rain = 0
KST3 181643Z 23015KT 33/17 A2994 RMK A01 T03260165  RH  038%=      5-min Rain = 0
KST3 181644Z 22017KT 33/16 A2994 RMK A01 T03260163  RH  038%=      5-min Rain = 0
KST3 181645Z 20016KT 33/16 A2994 RMK A01 T03250164  RH  038%=      5-min Rain = 0
KST3 181646Z 22016KT 33/16 A2994 RMK A01 T03270163  RH  038%=      5-min Rain = 0
KST3 181647Z 22014KT 33/17 A2994 RMK A01 T03270166  RH  038%=      5-min Rain = 0
KST3 181648Z 22014KT 33/17 A2994 RMK A01 T03290165  RH  037%=      5-min Rain = 0
KST3 181649Z 22011KT 33/17 A2994 RMK A01 T03270165  RH  038%=      5-min Rain = 0
KST3 181650Z 23015KT 33/17 A2994 RMK A01 T03280165  RH  038%=      5-min Rain = 0
KST3 181651Z 21015KT 33/17 A2994 RMK A01 T03290166  RH  038%=      5-min Rain = 0
KST3 181652Z 22014KT 33/17 A2994 RMK A01 T03300167  RH  038%=      5-min Rain = 0
KST3 181653Z 23013KT 33/17 A2994 RMK A01 T03310166  RH  037%=      5-min Rain = 0
KST3 181654Z 21012KT 33/17 A2994 RMK A01 T03330169  RH  038%=      5-min Rain = 0
KST3 181655Z 21011KT 34/17 A2994 RMK A01 T03370170  RH  037%=      5-min Rain = 0
KST3 181656Z 22012G17KT 34/17 A2994 RMK A01 T03370169  RH  037%=      5-min Rain = 0
KST3 181657Z 23014KT 34/17 A2994 RMK A01 T03370167  RH  036%=      5-min Rain = 0
KST3 181658Z 22016KT 34/16 A2994 RMK A01 T03350162  RH  036%=      5-min Rain = 0
KST3 181659Z 22013KT 33/16 A2994 RMK A01 T03330161  RH  036%=      5-min Rain = 0
KST3 181700Z 22014KT 33/16 A2994 RMK A01 T03320163  RH  037%=      5-min Rain = 0
KST3 181701Z 22015KT 33/16 A2994 RMK A01 T03320164  RH  037%=      5-min Rain = 0
KST3 181702Z 21017G22KT 33/16 A2994 RMK A01 T03330162  RH  036%=      5-min Rain = 0
KST3 181703Z 21017KT 33/16 A2994 RMK A01 T03330160  RH  036%=      5-min Rain = 0
KST3 181704Z 22014KT 33/16 A2994 RMK A01 T03330162  RH  036%=      5-min Rain = 0
KST3 181705Z 23018G23KT 33/16 A2993 RMK A01 T03330160  RH  036%=      5-min Rain = 0
KST3 181706Z 23016KT 33/16 A2994 RMK A01 T03330159  RH  035%=      5-min Rain = 0
KST3 181707Z 23014KT 33/16 A2993 RMK A01 T03320161  RH  036%=      5-min Rain = 0
KST3 181708Z 22015KT 33/16 A2994 RMK A01 T03340161  RH  036%=      5-min Rain = 0
KST3 181709Z 23014KT 33/16 A2994 RMK A01 T03340162  RH  036%=      5-min Rain = 0
KST3 181710Z 23016KT 33/16 A2993 RMK A01 T03340163  RH  036%=      5-min Rain = 0
KST3 181711Z 22017G22KT 34/16 A2993 RMK A01 T03360164  RH  036%=      5-min Rain = 0
KST3 181712Z 22016KT 34/16 A2993 RMK A01 T03370161  RH  035%=      5-min Rain = 0
KST3 181713Z 22015KT 34/16 A2993 RMK A01 T03380162  RH  035%=      5-min Rain = 0
KST3 181714Z 21013G18KT 34/16 A2993 RMK A01 T03370161  RH  035%=      5-min Rain = 0
KST3 181715Z 20014KT 34/16 A2993 RMK A01 T03360162  RH  035%=      5-min Rain = 0
KST3 181716Z 22016KT 34/16 A2993 RMK A01 T03370163  RH  035%=      5-min Rain = 0
KST3 181717Z 22015KT 34/16 A2993 RMK A01 T03380160  RH  035%=      5-min Rain = 0
KST3 181718Z 21014KT 34/16 A2993 RMK A01 T03380163  RH  035%=      5-min Rain = 0
KST3 181719Z 22015KT 34/17 A2993 RMK A01 T03400165  RH  035%=      5-min Rain = 0
KST3 181720Z 22013G19KT 34/16 A2993 RMK A01 T03420163  RH  034%=      5-min Rain = 0
KST3 181721Z 22016G21KT 34/16 A2993 RMK A01 T03420164  RH  035%=      5-min Rain = 0
KST3 181722Z 22015KT 34/16 A2993 RMK A01 T03430164  RH  034%=      5-min Rain = 0
KST3 181723Z 23017KT 34/16 A2993 RMK A01 T03420161  RH  034%=      5-min Rain = 0
KST3 181724Z 23017KT 34/16 A2993 RMK A01 T03410162  RH  035%=      5-min Rain = 0
KST3 181725Z 22018G23KT 34/16 A2993 RMK A01 T03420163  RH  034%=      5-min Rain = 0
KST3 181726Z 21013G18KT 34/16 A2993 RMK A01 T03410161  RH  034%=      5-min Rain = 0
KST3 181727Z 21016KT 34/17 A2993 RMK A01 T03400165  RH  035%=      5-min Rain = 0
KST3 181728Z 21015KT 34/16 A2993 RMK A01 T03410161  RH  034%=      5-min Rain = 0
KST3 181729Z 22015KT 34/16 A2993 RMK A01 T03390162  RH  035%=      5-min Rain = 0
KST3 181730Z 21015G22KT 34/16 A2993 RMK A01 T03390160  RH  034%=      5-min Rain = 0
KST3 181731Z 21017KT 34/16 A2993 RMK A01 T03390158  RH  034%=      5-min Rain = 0
KST3 181732Z 21015KT 34/16 A2993 RMK A01 T03390160  RH  034%=      5-min Rain = 0
KST3 181733Z 21013KT 34/16 A2993 RMK A01 T03390162  RH  035%=      5-min Rain = 0
KST3 181734Z 20014KT 34/16 A2993 RMK A01 T03400164  RH  035%=      5-min Rain = 0
KST3 181735Z 20011KT 34/16 A2993 RMK A01 T03420163  RH  035%=      5-min Rain = 0
KST3 181736Z 22015KT 34/16 A2993 RMK A01 T03420164  RH  035%=      5-min Rain = 0
KST3 181737Z 20015KT 34/16 A2993 RMK A01 T03420163  RH  034%=      5-min Rain = 0
KST3 181738Z 23014KT 34/16 A2992 RMK A01 T03430164  RH  034%=      5-min Rain = 0
KST3 181739Z 22015KT 34/16 A2992 RMK A01 T03430162  RH  034%=      5-min Rain = 0
KST3 181740Z 21012KT 34/16 A2992 RMK A01 T03420164  RH  035%=      5-min Rain = 0
KST3 181741Z 21013KT 35/17 A2992 RMK A01 T03450167  RH  035%=      5-min Rain = 0
KST3 181742Z 22015KT 35/16 A2992 RMK A01 T03470164  RH  034%=      5-min Rain = 0
KST3 181743Z 21014KT 35/17 A2992 RMK A01 T03460165  RH  034%=      5-min Rain = 0
KST3 181744Z 20011KT 35/17 A2992 RMK A01 T03470169  RH  035%=      5-min Rain = 0
KST3 181745Z 20010KT 35/17 A2992 RMK A01 T03500169  RH  034%=      5-min Rain = 0
KST3 181746Z 23014KT 35/17 A2992 RMK A01 T03520166  RH  033%=      5-min Rain = 0
KST3 181747Z 22017KT 35/17 A2992 RMK A01 T03510165  RH  033%=      5-min Rain = 0
KST3 181748Z 22015G20KT 35/17 A2992 RMK A01 T03510165  RH  033%=      5-min Rain = 0
KST3 181749Z 22015KT 35/16 A2992 RMK A01 T03530164  RH  033%=      5-min Rain = 0
KST3 181750Z 22016KT 35/16 A2992 RMK A01 T03510162  RH  032%=      5-min Rain = 0
KST3 181751Z 22015KT 35/16 A2992 RMK A01 T03490162  RH  033%=      5-min Rain = 0
KST3 181752Z 21014KT 35/16 A2992 RMK A01 T03490161  RH  033%=      5-min Rain = 0
KST3 181753Z 20012KT 35/16 A2992 RMK A01 T03480163  RH  033%=      5-min Rain = 0
KST3 181754Z 21015KT 35/16 A2992 RMK A01 T03480162  RH  033%=      5-min Rain = 0
KST3 181755Z 22014KT 35/16 A2992 RMK A01 T03480163  RH  033%=      5-min Rain = 0
KST3 181756Z 23015KT 35/16 A2992 RMK A01 T03480164  RH  033%=      5-min Rain = 0
KST3 181757Z 23013KT 35/16 A2992 RMK A01 T03470163  RH  033%=      5-min Rain = 0
KST3 181758Z 22012KT 35/17 A2992 RMK A01 T03450165  RH  034%=      5-min Rain = 0
KST3 181759Z 20011KT 35/17 A2992 RMK A01 T03470169  RH  035%=      5-min Rain = 0
KST3 181800Z 21015KT 35/17 A2992 RMK A01 T03510167  RH  034%=      5-min Rain = 0
KST3 181801Z 19013KT 35/17 A2992 RMK A01 T03540167  RH  033%=      5-min Rain = 0
KST3 181802Z 18014KT 36/16 A2992 RMK A01 T03560163  RH  032%=      5-min Rain = 0
KST3 181803Z 18015KT 36/16 A2992 RMK A01 T03560158  RH  031%=      5-min Rain = 0
KST3 181804Z 20015KT 35/16 A2992 RMK A01 T03540162  RH  032%=      5-min Rain = 0
KST3 181805Z 21013KT 36/17 A2992 RMK A01 T03560165  RH  032%=      5-min Rain = 0
KST3 181806Z 18011KT 36/17 A2992 RMK A01 T03560165  RH  032%=      5-min Rain = 0
KST3 181807Z 19014KT 36/16 A2991 RMK A01 T03560162  RH  032%=      5-min Rain = 0
KST3 181808Z 20016KT 36/16 A2992 RMK A01 T03580164  RH  032%=      5-min Rain = 0
KST3 181809Z 21014G20KT 36/16 A2991 RMK A01 T03570159  RH  031%=      5-min Rain = 0
KST3 181810Z 20012G18KT 35/16 A2991 RMK A01 T03540161  RH  032%=      5-min Rain = 0
KST3 181811Z 19014KT 36/16 A2991 RMK A01 T03550164  RH  032%=      5-min Rain = 0
KST3 181812Z 19014KT 36/15 A2991 RMK A01 T03570154  RH  030%=      5-min Rain = 0
KST3 181813Z 18014KT 35/16 A2991 RMK A01 T03530157  RH  031%=      5-min Rain = 0
KST3 181814Z 19019KT 36/16 A2991 RMK A01 T03550155  RH  030%=      5-min Rain = 0
KST3 181815Z 19018KT 36/15 A2991 RMK A01 T03550152  RH  030%=      5-min Rain = 0
KST3 181816Z 20016KT 35/16 A2991 RMK A01 T03530156  RH  031%=      5-min Rain = 0
KST3 181817Z 20016KT 35/16 A2991 RMK A01 T03540156  RH  031%=      5-min Rain = 0
KST3 181818Z 21015KT 35/16 A2991 RMK A01 T03540158  RH  031%=      5-min Rain = 0
KST3 181819Z 19014KT 36/16 A2991 RMK A01 T03570159  RH  031%=      5-min Rain = 0
KST3 181820Z 20014KT 36/16 A2991 RMK A01 T03580157  RH  030%=      5-min Rain = 0
KST3 181821Z 21015KT 36/16 A2991 RMK A01 T03560155  RH  030%=      5-min Rain = 0
KST3 181822Z 20015KT 35/16 A2991 RMK A01 T03530159  RH  031%=      5-min Rain = 0
KST3 181823Z 19013KT 35/16 A2991 RMK A01 T03530162  RH  032%=      5-min Rain = 0
KST3 181824Z 20011KT 35/16 A2991 RMK A01 T03530162  RH  032%=      5-min Rain = 0
KST3 181825Z 21014KT 35/16 A2991 RMK A01 T03530160  RH  032%=      5-min Rain = 0
KST3 181826Z 20014G19KT 35/16 A2991 RMK A01 T03540159  RH  031%=      5-min Rain = 0
KST3 181827Z 19017KT 35/16 A2991 RMK A01 T03530157  RH  031%=      5-min Rain = 0
KST3 181828Z 21015KT 35/16 A2991 RMK A01 T03500157  RH  032%=      5-min Rain = 0
KST3 181829Z 20013G18KT 35/16 A2991 RMK A01 T03510160  RH  032%=      5-min Rain = 0
KST3 181830Z 20011KT 35/16 A2991 RMK A01 T03530163  RH  032%=      5-min Rain = 0
KST3 181831Z 19011KT 35/16 A2991 RMK A01 T03540162  RH  032%=      5-min Rain = 0
KST3 181832Z 19011G17KT 35/16 A2991 RMK A01 T03540163  RH  032%=      5-min Rain = 0
KST3 181833Z 19014KT 35/16 A299 RMK A01 T03540162  RH  032%=      5-min Rain = 0
KST3 181834Z 17016G21KT 36/17 A299 RMK A01 T03550165  RH  032%=      5-min Rain = 0
KST3 181835Z 17015KT 36/17 A299 RMK A01 T03560167  RH  033%=      5-min Rain = 0
KST3 181836Z 18015KT 36/16 A299 RMK A01 T03560164  RH  032%=      5-min Rain = 0
KST3 181837Z 18015KT 35/16 A299 RMK A01 T03540163  RH  032%=      5-min Rain = 0
KST3 181838Z 17014KT 35/17 A299 RMK A01 T03530165  RH  033%=      5-min Rain = 0
KST3 181839Z 18010KT 36/17 A299 RMK A01 T03560169  RH  033%=      5-min Rain = 0
KST3 181840Z 19010KT 36/17 A299 RMK A01 T03600167  RH  032%=      5-min Rain = 0
KST3 181841Z 20010KT 36/17 A299 RMK A01 T03630171  RH  032%=      5-min Rain = 0
KST3 181842Z 19009KT 37/17 A299 RMK A01 T03650169  RH  031%=      5-min Rain = 0
KST3 181843Z 18012G18KT 37/17 A299 RMK A01 T03660171  RH  032%=      5-min Rain = 0
KST3 181844Z 20013KT 37/17 A299 RMK A01 T03670168  RH  031%=      5-min Rain = 0
KST3 181845Z 20014G19KT 36/16 A299 RMK A01 T03640161  RH  030%=      5-min Rain = 0
KST3 181846Z 18013KT 36/16 A299 RMK A01 T03590160  RH  031%=      5-min Rain = 0
KST3 181847Z 17011KT 36/16 A299 RMK A01 T03580162  RH  031%=      5-min Rain = 0
KST3 181848Z 18016KT 36/16 A299 RMK A01 T03590163  RH  031%=      5-min Rain = 0
KST3 181849Z 18018KT 36/16 A299 RMK A01 T03590159  RH  031%=      5-min Rain = 0
KST3 181850Z 18019KT 36/16 A299 RMK A01 T03590158  RH  030%=      5-min Rain = 0
KST3 181851Z 18014KT 36/16 A299 RMK A01 T03590160  RH  031%=      5-min Rain = 0
KST3 181852Z 18013G19KT 36/17 A299 RMK A01 T03610166  RH  031%=      5-min Rain = 0
KST3 181853Z 18017KT 36/16 A299 RMK A01 T03630161  RH  030%=      5-min Rain = 0
KST3 181854Z 18015KT 36/16 A299 RMK A01 T03600158  RH  030%=      5-min Rain = 0
KST3 181855Z 19011G16KT 36/16 A299 RMK A01 T03570159  RH  031%=      5-min Rain = 0
KST3 181856Z 17010KT 36/16 A299 RMK A01 T03580164  RH  032%=      5-min Rain = 0
KST3 181857Z 18015KT 36/17 A299 RMK A01 T03610165  RH  031%=      5-min Rain = 0
KST3 181858Z 19016KT 36/16 A299 RMK A01 T03630158  RH  030%=      5-min Rain = 0
KST3 181859Z 18018G23KT 36/16 A299 RMK A01 T03620157  RH  030%=      5-min Rain = 0
KST3 181900Z 18021KT 36/16 A299 RMK A01 T03620157  RH  030%=      5-min Rain = 0
KST3 181901Z 18014KT 36/16 A299 RMK A01 T03610158  RH  030%=      5-min Rain = 0
KST3 181902Z 17017KT 36/16 A299 RMK A01 T03630158  RH  030%=      5-min Rain = 0
KST3 181903Z 17019KT 36/16 A299 RMK A01 T03630157  RH  030%=      5-min Rain = 0
KST3 181904Z 18012KT 36/16 A299 RMK A01 T03620159  RH  030%=      5-min Rain = 0
KST3 181905Z 18015G20KT 36/16 A299 RMK A01 T03640161  RH  030%=      5-min Rain = 0
KST3 181906Z 18017KT 37/16 A299 RMK A01 T03650158  RH  029%=      5-min Rain = 0
KST3 181907Z 18014KT 37/16 A299 RMK A01 T03650155  RH  029%=      5-min Rain = 0
KST3 181908Z 18018KT 36/16 A299 RMK A01 T03640156  RH  029%=      5-min Rain = 0
KST3 181909Z 18020KT 37/15 A299 RMK A01 T03650154  RH  029%=      5-min Rain = 0
KST3 181910Z 19017KT 37/15 A299 RMK A01 T03650154  RH  029%=      5-min Rain = 0
KST3 181911Z 18014KT 36/15 A299 RMK A01 T03630152  RH  028%=      5-min Rain = 0
KST3 181912Z 18013KT 36/16 A299 RMK A01 T03620157  RH  030%=      5-min Rain = 0
KST3 181913Z 18014KT 36/16 A299 RMK A01 T03620156  RH  029%=      5-min Rain = 0
KST3 181914Z 17011KT 36/16 A299 RMK A01 T03620156  RH  029%=      5-min Rain = 0
KST3 181915Z 17014KT 36/16 A299 RMK A01 T03620162  RH  031%=      5-min Rain = 0
KST3 181916Z 18016G21KT 36/16 A2989 RMK A01 T03630159  RH  030%=      5-min Rain = 0
KST3 181917Z 18019KT 36/16 A2989 RMK A01 T03630157  RH  029%=      5-min Rain = 0
KST3 181918Z 18017KT 36/16 A2989 RMK A01 T03630156  RH  029%=      5-min Rain = 0
KST3 181919Z 18013KT 36/16 A2989 RMK A01 T03620158  RH  030%=      5-min Rain = 0
KST3 181920Z 19012KT 37/16 A2989 RMK A01 T03650163  RH  030%=      5-min Rain = 0
KST3 181921Z 18017KT 37/16 A2989 RMK A01 T03690163  RH  030%=      5-min Rain = 0
KST3 181922Z 19017KT 37/15 A2989 RMK A01 T03670154  RH  028%=      5-min Rain = 0
KST3 181923Z 19012KT 36/15 A2989 RMK A01 T03640153  RH  029%=      5-min Rain = 0
KST3 181924Z 18012KT 36/16 A2989 RMK A01 T03630156  RH  029%=      5-min Rain = 0
KST3 181925Z 18019KT 36/16 A2989 RMK A01 T03630156  RH  029%=      5-min Rain = 0
KST3 181926Z 18020KT 36/15 A2989 RMK A01 T03640152  RH  029%=      5-min Rain = 0
KST3 181927Z 17019KT 36/15 A2989 RMK A01 T03630151  RH  028%=      5-min Rain = 0
KST3 181928Z 18019KT 36/15 A2989 RMK A01 T03620151  RH  029%=      5-min Rain = 0
KST3 181929Z 18016KT 36/15 A2989 RMK A01 T03620153  RH  029%=      5-min Rain = 0
KST3 181930Z 17015KT 37/15 A2989 RMK A01 T03650152  RH  028%=      5-min Rain = 0
KST3 181931Z 17012KT 37/15 A2989 RMK A01 T03650152  RH  028%=      5-min Rain = 0
KST3 181932Z 17015G22KT 37/16 A2989 RMK A01 T03670155  RH  028%=      5-min Rain = 0
KST3 181933Z 16019KT 37/15 A2989 RMK A01 T03670153  RH  028%=      5-min Rain = 0
KST3 181934Z 17018KT 37/16 A2989 RMK A01 T03660155  RH  029%=      5-min Rain = 0
KST3 181935Z 16016KT 37/16 A2989 RMK A01 T03660156  RH  029%=      5-min Rain = 0
KST3 181936Z 16016KT 37/16 A2989 RMK A01 T03670155  RH  028%=      5-min Rain = 0
KST3 181937Z 17015KT 37/16 A2989 RMK A01 T03670155  RH  028%=      5-min Rain = 0
KST3 181938Z 17017G24KT 37/16 A2989 RMK A01 T03680158  RH  029%=      5-min Rain = 0
KST3 181939Z 18019KT 37/16 A2989 RMK A01 T03710156  RH  028%=      5-min Rain = 0
KST3 181940Z 18020KT 37/15 A2988 RMK A01 T03690153  RH  028%=      5-min Rain = 0
KST3 181941Z 18021KT 37/15 A2988 RMK A01 T03680147  RH  027%=      5-min Rain = 0
KST3 181942Z 18020G25KT 37/14 A2988 RMK A01 T03680142  RH  026%=      5-min Rain = 0
KST3 181943Z 18018KT 37/14 A2989 RMK A01 T03690142  RH  026%=      5-min Rain = 0
KST3 181944Z 18016KT 37/15 A2988 RMK A01 T03700148  RH  027%=      5-min Rain = 0
KST3 181945Z 17015KT 37/16 A2988 RMK A01 T03710156  RH  028%=      5-min Rain = 0
KST3 181946Z 17015KT 37/15 A2988 RMK A01 T03710154  RH  028%=      5-min Rain = 0
KST3 181947Z 19013KT 37/16 A2988 RMK A01 T03700156  RH  028%=      5-min Rain = 0
KST3 181948Z 20014G19KT 37/16 A2988 RMK A01 T03690158  RH  029%=      5-min Rain = 0
KST3 181949Z 18013KT 37/16 A2988 RMK A01 T03720160  RH  029%=      5-min Rain = 0
KST3 181950Z 18015G20KT 37/16 A2988 RMK A01 T03730161  RH  029%=      5-min Rain = 0
KST3 181951Z 18017KT 37/15 A2988 RMK A01 T03730154  RH  027%=      5-min Rain = 0
KST3 181952Z 20017KT 38/15 A2988 RMK A01 T03750153  RH  027%=      5-min Rain = 0
KST3 181953Z 19013KT 38/15 A2988 RMK A01 T03750151  RH  027%=      5-min Rain = 0
KST3 181954Z 19011KT 38/16 A2988 RMK A01 T03780156  RH  027%=      5-min Rain = 0
KST3 181955Z 19012KT 38/16 A2988 RMK A01 T03810161  RH  027%=      5-min Rain = 0
KST3 181956Z 20016KT 38/16 A2988 RMK A01 T03830158  RH  027%=      5-min Rain = 0
KST3 181957Z 20016KT 38/16 A2988 RMK A01 T03790155  RH  027%=      5-min Rain = 0
KST3 181958Z 22015KT 38/16 A2988 RMK A01 T03770156  RH  027%=      5-min Rain = 0
KST3 181959Z 20017KT 38/16 A2988 RMK A01 T03760158  RH  028%=      5-min Rain = 0
KST3 182000Z 19016G22KT 38/16 A2988 RMK A01 T03760156  RH  027%=      5-min Rain = 0
KST3 182001Z 19015KT 37/16 A2988 RMK A01 T03730155  RH  028%=      5-min Rain = 0
KST3 182002Z 19017KT 37/15 A2988 RMK A01 T03730154  RH  028%=      5-min Rain = 0
KST3 182003Z 19015KT 37/15 A2988 RMK A01 T03720154  RH  027%=      5-min Rain = 0
KST3 182004Z 19014KT 37/16 A2988 RMK A01 T03720156  RH  028%=      5-min Rain = 0
KST3 182005Z 20013G18KT 37/16 A2988 RMK A01 T03740161  RH  028%=      5-min Rain = 0
KST3 182006Z 20013G18KT 38/16 A2988 RMK A01 T03750155  RH  027%=      5-min Rain = 0
KST3 182007Z 20018G23KT 38/16 A2987 RMK A01 T03760156  RH  027%=      5-min Rain = 0
KST3 182008Z 19020KT 38/15 A2987 RMK A01 T03780154  RH  027%=      5-min Rain = 0
KST3 182009Z 19019G26KT 38/15 A2988 RMK A01 T03770151  RH  026%=      5-min Rain = 0
KST3 182010Z 19017KT 38/15 A2988 RMK A01 T03760153  RH  027%=      5-min Rain = 0
KST3 182011Z 19015KT 38/16 A2988 RMK A01 T03760155  RH  027%=      5-min Rain = 0
KST3 182012Z 19014G19KT 38/16 A2988 RMK A01 T03770155  RH  027%=      5-min Rain = 0
KST3 182013Z 21017KT 38/15 A2987 RMK A01 T03770153  RH  027%=      5-min Rain = 0
KST3 182014Z 20012KT 38/15 A2987 RMK A01 T03750153  RH  027%=      5-min Rain = 0
KST3 182015Z 20018G27KT 38/16 A2987 RMK A01 T03770157  RH  027%=      5-min Rain = 0
KST3 182016Z 19020KT 38/15 A2987 RMK A01 T03790151  RH  026%=      5-min Rain = 0
KST3 182017Z 19018KT 38/15 A2987 RMK A01 T03790150  RH  026%=      5-min Rain = 0
KST3 182018Z 19017KT 38/15 A2987 RMK A01 T03770153  RH  027%=      5-min Rain = 0
KST3 182019Z 19017KT 38/15 A2987 RMK A01 T03770154  RH  027%=      5-min Rain = 0
KST3 182020Z 19019KT 38/15 A2987 RMK A01 T03760151  RH  026%=      5-min Rain = 0
KST3 182021Z 20015KT 38/15 A2987 RMK A01 T03750152  RH  027%=      5-min Rain = 0
KST3 182022Z 19013G18KT 38/15 A2987 RMK A01 T03750153  RH  027%=      5-min Rain = 0
KST3 182023Z 18013KT 38/15 A2987 RMK A01 T03750154  RH  027%=      5-min Rain = 0
KST3 182024Z 18016KT 38/16 A2987 RMK A01 T03780157  RH  027%=      5-min Rain = 0
KST3 182025Z 19016KT 38/15 A2987 RMK A01 T03790153  RH  026%=      5-min Rain = 0
KST3 182026Z 17017KT 38/15 A2987 RMK A01 T03780151  RH  026%=      5-min Rain = 0
KST3 182027Z 18020KT 38/15 A2987 RMK A01 T03770149  RH  026%=      5-min Rain = 0
KST3 182028Z 19021KT 38/15 A2987 RMK A01 T03770148  RH  026%=      5-min Rain = 0
KST3 182029Z 19016KT 38/15 A2987 RMK A01 T03760146  RH  026%=      5-min Rain = 0
KST3 182030Z 18014KT 38/15 A2987 RMK A01 T03750148  RH  026%=      5-min Rain = 0
KST3 182031Z 17017G23KT 38/15 A2987 RMK A01 T03750151  RH  026%=      5-min Rain = 0
KST3 182032Z 16017KT 38/15 A2987 RMK A01 T03780151  RH  026%=      5-min Rain = 0
KST3 182033Z 16017KT 38/15 A2987 RMK A01 T03790153  RH  026%=      5-min Rain = 0
KST3 182034Z 18017KT 38/15 A2987 RMK A01 T03790151  RH  026%=      5-min Rain = 0
KST3 182035Z 15016G21KT 38/15 A2987 RMK A01 T03780150  RH  026%=      5-min Rain = 0
KST3 182036Z 16017KT 38/15 A2986 RMK A01 T03780152  RH  026%=      5-min Rain = 0
KST3 182037Z 18017G22KT 38/16 A2987 RMK A01 T03800155  RH  027%=      5-min Rain = 0
KST3 182038Z 18016G21KT 38/16 A2987 RMK A01 T03820157  RH  026%=      5-min Rain = 0
KST3 182039Z 19016KT 38/15 A2987 RMK A01 T03820149  RH  025%=      5-min Rain = 0
KST3 182040Z 19019G26KT 38/15 A2987 RMK A01 T03780151  RH  026%=      5-min Rain = 0
KST3 182041Z 18017G23KT 38/15 A2987 RMK A01 T03780150  RH  026%=      5-min Rain = 0
KST3 182042Z 18018KT 38/15 A2987 RMK A01 T03780153  RH  026%=      5-min Rain = 0
KST3 182043Z 17017KT 38/15 A2987 RMK A01 T03790152  RH  026%=      5-min Rain = 0
KST3 182044Z 17013KT 38/15 A2986 RMK A01 T03780151  RH  026%=      5-min Rain = 0
KST3 182045Z 17014KT 38/15 A2986 RMK A01 T03770153  RH  027%=      5-min Rain = 0
KST3 182046Z 17018KT 38/15 A2986 RMK A01 T03790153  RH  026%=      5-min Rain = 0
KST3 182047Z 19019KT 38/15 A2986 RMK A01 T03790152  RH  026%=      5-min Rain = 0
KST3 182048Z 19015KT 38/15 A2986 RMK A01 T03810151  RH  026%=      5-min Rain = 0
KST3 182049Z 20016G22KT 38/15 A2986 RMK A01 T03790151  RH  026%=      5-min Rain = 0
KST3 182050Z 19017KT 38/15 A2986 RMK A01 T03780151  RH  026%=      5-min Rain = 0
KST3 182051Z 18016G22KT 38/15 A2986 RMK A01 T03790154  RH  027%=      5-min Rain = 0
KST3 182052Z 17017KT 38/16 A2986 RMK A01 T03810155  RH  026%=      5-min Rain = 0
KST3 182053Z 16018KT 38/15 A2986 RMK A01 T03810151  RH  026%=      5-min Rain = 0
KST3 182054Z 16016KT 38/15 A2986 RMK A01 T03790150  RH  026%=      5-min Rain = 0
KST3 182055Z 17017KT 38/15 A2986 RMK A01 T03780151  RH  026%=      5-min Rain = 0
KST3 182056Z 18022KT 38/15 A2986 RMK A01 T03790151  RH  026%=      5-min Rain = 0
KST3 182057Z 17018KT 38/15 A2986 RMK A01 T03790149  RH  026%=      5-min Rain = 0
KST3 182058Z 17015G20KT 38/15 A2986 RMK A01 T03800154  RH  026%=      5-min Rain = 0
KST3 182059Z 17016KT 38/15 A2986 RMK A01 T03810149  RH  025%=      5-min Rain = 0
KST3 182100Z 18015G21KT 38/15 A2986 RMK A01 T03800150  RH  026%=      5-min Rain = 0
KST3 182101Z 17019KT 38/15 A2986 RMK A01 T03790150  RH  026%=      5-min Rain = 0
KST3 182102Z 16014KT 38/15 A2986 RMK A01 T03790151  RH  026%=      5-min Rain = 0
KST3 182103Z 17015KT 38/16 A2986 RMK A01 T03820155  RH  026%=      5-min Rain = 0
KST3 182104Z 17015KT 38/15 A2986 RMK A01 T03830153  RH  026%=      5-min Rain = 0
KST3 182105Z 16017G22KT 38/15 A2986 RMK A01 T03830151  RH  025%=      5-min Rain = 0
KST3 182106Z 16014KT 38/15 A2986 RMK A01 T03820149  RH  025%=      5-min Rain = 0
KST3 182107Z 17017KT 38/16 A2986 RMK A01 T03830155  RH  026%=      5-min Rain = 0
KST3 182108Z 18019KT 39/15 A2986 RMK A01 T03850151  RH  025%=      5-min Rain = 0
KST3 182109Z 18016KT 39/15 A2986 RMK A01 T03850152  RH  025%=      5-min Rain = 0
KST3 182110Z 18021KT 39/15 A2986 RMK A01 T03860150  RH  025%=      5-min Rain = 0
KST3 182111Z 18018KT 38/15 A2986 RMK A01 T03840146  RH  024%=      5-min Rain = 0
KST3 182112Z 18015KT 38/15 A2986 RMK A01 T03810147  RH  025%=      5-min Rain = 0
KST3 182113Z 18015KT 38/15 A2986 RMK A01 T03810147  RH  025%=      5-min Rain = 0
KST3 182114Z 18016KT 38/15 A2986 RMK A01 T03800146  RH  025%=      5-min Rain = 0
KST3 182115Z 18016KT 38/15 A2986 RMK A01 T03800146  RH  025%=      5-min Rain = 0
KST3 182116Z 17017KT 38/15 A2986 RMK A01 T03810148  RH  025%=      5-min Rain = 0
KST3 182117Z 17017KT 38/15 A2986 RMK A01 T03810146  RH  025%=      5-min Rain = 0
KST3 182118Z 17015KT 38/15 A2986 RMK A01 T03810148  RH  025%=      5-min Rain = 0
KST3 182119Z 18015KT 38/15 A2986 RMK A01 T03810151  RH  026%=      5-min Rain = 0
KST3 182120Z 18018G25KT 38/15 A2986 RMK A01 T03810148  RH  025%=      5-min Rain = 0
KST3 182121Z 17018KT 38/15 A2986 RMK A01 T03810151  RH  026%=      5-min Rain = 0
KST3 182122Z 17020KT 38/15 A2986 RMK A01 T03810149  RH  025%=      5-min Rain = 0
KST3 182123Z 16014G20KT 38/15 A2986 RMK A01 T03790149  RH  026%=      5-min Rain = 0
KST3 182124Z 16017KT 38/15 A2985 RMK A01 T03790152  RH  026%=      5-min Rain = 0
KST3 182125Z 16017KT 38/15 A2985 RMK A01 T03800152  RH  026%=      5-min Rain = 0
KST3 182126Z 16016KT 38/15 A2986 RMK A01 T03800154  RH  026%=      5-min Rain = 0
KST3 182127Z 18015KT 38/15 A2985 RMK A01 T03800153  RH  026%=      5-min Rain = 0
KST3 182128Z 16017KT 38/15 A2985 RMK A01 T03800151  RH  026%=      5-min Rain = 0
KST3 182129Z 17014KT 38/15 A2985 RMK A01 T03800154  RH  026%=      5-min Rain = 0
KST3 182130Z 18018G23KT 38/15 A2985 RMK A01 T03810152  RH  026%=      5-min Rain = 0
KST3 182131Z 17015G23KT 38/15 A2985 RMK A01 T03810153  RH  026%=      5-min Rain = 0
KST3 182132Z 16017KT 38/15 A2985 RMK A01 T03810148  RH  025%=      5-min Rain = 0
KST3 182133Z 16015G20KT 38/15 A2985 RMK A01 T03800149  RH  026%=      5-min Rain = 0
KST3 182134Z 17016KT 38/15 A2985 RMK A01 T03800153  RH  026%=      5-min Rain = 0
KST3 182135Z 18016KT 38/16 A2985 RMK A01 T03830155  RH  026%=      5-min Rain = 0
KST3 182136Z 18019G25KT 38/15 A2985 RMK A01 T03840153  RH  026%=      5-min Rain = 0
KST3 182137Z 18018KT 38/15 A2985 RMK A01 T03830151  RH  025%=      5-min Rain = 0
KST3 182138Z 17012G17KT 38/15 A2985 RMK A01 T03830154  RH  026%=      5-min Rain = 0
KST3 182139Z 16016G25KT 38/15 A2985 RMK A01 T03830149  RH  025%=      5-min Rain = 0
KST3 182140Z 17022G28KT 38/15 A2985 RMK A01 T03820148  RH  025%=      5-min Rain = 0
KST3 182141Z 18020KT 38/15 A2985 RMK A01 T03810145  RH  025%=      5-min Rain = 0
KST3 182142Z 19018KT 38/15 A2985 RMK A01 T03820147  RH  025%=      5-min Rain = 0
KST3 182143Z 18019KT 39/15 A2985 RMK A01 T03850146  RH  024%=      5-min Rain = 0
KST3 182144Z 17020KT 39/14 A2985 RMK A01 T03850143  RH  024%=      5-min Rain = 0
KST3 182145Z 17019KT 38/14 A2985 RMK A01 T03830142  RH  024%=      5-min Rain = 0
KST3 182146Z 18018KT 38/14 A2985 RMK A01 T03810143  RH  024%=      5-min Rain = 0
KST3 182147Z 18015KT 38/14 A2985 RMK A01 T03810142  RH  024%=      5-min Rain = 0
KST3 182148Z 19014G19KT 38/14 A2985 RMK A01 T03810139  RH  024%=      5-min Rain = 0
KST3 182149Z 18013KT 38/14 A2985 RMK A01 T03800143  RH  025%=      5-min Rain = 0
KST3 182150Z 19017G23KT 38/15 A2985 RMK A01 T03830148  RH  025%=      5-min Rain = 0
KST3 182151Z 17019G24KT 38/15 A2985 RMK A01 T03840146  RH  025%=      5-min Rain = 0
KST3 182152Z 18016G24KT 38/15 A2985 RMK A01 T03830151  RH  025%=      5-min Rain = 0
KST3 182153Z 18022KT 39/15 A2984 RMK A01 T03850145  RH  024%=      5-min Rain = 0
KST3 182154Z 19019G24KT 38/15 A2985 RMK A01 T03820145  RH  025%=      5-min Rain = 0
KST3 182155Z 18015G22KT 38/15 A2985 RMK A01 T03810148  RH  025%=      5-min Rain = 0
KST3 182156Z 18021G26KT 38/15 A2985 RMK A01 T03820147  RH  025%=      5-min Rain = 0
KST3 182157Z 18019G24KT 38/14 A2985 RMK A01 T03820142  RH  024%=      5-min Rain = 0
KST3 182158Z 18014KT 38/15 A2985 RMK A01 T03800147  RH  025%=      5-min Rain = 0
KST3 182159Z 19018KT 38/15 A2985 RMK A01 T03820148  RH  025%=      5-min Rain = 0
KST3 182200Z 17020KT 38/15 A2984 RMK A01 T03840146  RH  025%=      5-min Rain = 0
KST3 182201Z 19019KT 38/14 A2984 RMK A01 T03840141  RH  024%=      5-min Rain = 0
KST3 182202Z 19016KT 38/14 A2985 RMK A01 T03840139  RH  024%=      5-min Rain = 0
KST3 182203Z 18020G25KT 38/14 A2984 RMK A01 T03830141  RH  024%=      5-min Rain = 0
KST3 182204Z 17018KT 38/14 A2984 RMK A01 T03820141  RH  024%=      5-min Rain = 0
KST3 182205Z 18016KT 38/14 A2984 RMK A01 T03810144  RH  025%=      5-min Rain = 0
KST3 182206Z 19016KT 38/15 A2984 RMK A01 T03830148  RH  025%=      5-min Rain = 0
KST3 182207Z 18015KT 39/15 A2985 RMK A01 T03860148  RH  024%=      5-min Rain = 0
KST3 182208Z 17018G24KT 39/15 A2984 RMK A01 T03870149  RH  025%=      5-min Rain = 0
KST3 182209Z 19017KT 39/15 A2984 RMK A01 T03860146  RH  024%=      5-min Rain = 0
KST3 182210Z 18018KT 39/14 A2984 RMK A01 T03850143  RH  024%=      5-min Rain = 0
KST3 182211Z 17019KT 38/14 A2984 RMK A01 T03830141  RH  024%=      5-min Rain = 0
KST3 182212Z 17016KT 38/14 A2984 RMK A01 T03810142  RH  024%=      5-min Rain = 0
KST3 182213Z 17019KT 38/14 A2984 RMK A01 T03810143  RH  024%=      5-min Rain = 0
KST3 182214Z 16018KT 38/14 A2984 RMK A01 T03820142  RH  024%=      5-min Rain = 0
KST3 182215Z 17018KT 38/14 A2984 RMK A01 T03820143  RH  024%=      5-min Rain = 0
KST3 182216Z 17019KT 38/15 A2984 RMK A01 T03830145  RH  024%=      5-min Rain = 0
KST3 182217Z 17017KT 38/15 A2984 RMK A01 T03840146  RH  025%=      5-min Rain = 0
KST3 182218Z 17017KT 38/15 A2984 RMK A01 T03840145  RH  024%=      5-min Rain = 0
KST3 182219Z 17020KT 38/14 A2984 RMK A01 T03820143  RH  024%=      5-min Rain = 0
KST3 182220Z 17018KT 38/14 A2984 RMK A01 T03810143  RH  025%=      5-min Rain = 0
KST3 182221Z 17015KT 38/14 A2984 RMK A01 T03800144  RH  025%=      5-min Rain = 0
KST3 182222Z 17014KT 38/15 A2984 RMK A01 T03800146  RH  025%=      5-min Rain = 0
KST3 182223Z 17013KT 38/15 A2984 RMK A01 T03820149  RH  025%=      5-min Rain = 0
KST3 182224Z 16016KT 38/15 A2984 RMK A01 T03830147  RH  025%=      5-min Rain = 0
KST3 182225Z 17018G23KT 38/15 A2984 RMK A01 T03840146  RH  024%=      5-min Rain = 0
KST3 182226Z 17020KT 38/14 A2984 RMK A01 T03840142  RH  024%=      5-min Rain = 0
KST3 182227Z 17017KT 38/14 A2984 RMK A01 T03830142  RH  024%=      5-min Rain = 0
KST3 182228Z 17018KT 38/14 A2984 RMK A01 T03820141  RH  024%=      5-min Rain = 0
KST3 182229Z 19015G21KT 38/14 A2984 RMK A01 T03810142  RH  024%=      5-min Rain = 0
KST3 182230Z 18016KT 38/15 A2984 RMK A01 T03810146  RH  025%=      5-min Rain = 0
KST3 182231Z 18017KT 38/14 A2984 RMK A01 T03810141  RH  024%=      5-min Rain = 0
KST3 182232Z 19013KT 38/14 A2984 RMK A01 T03800144  RH  025%=      5-min Rain = 0
KST3 182233Z 19014KT 38/14 A2984 RMK A01 T03800142  RH  024%=      5-min Rain = 0
KST3 182234Z 18015KT 38/15 A2984 RMK A01 T03800145  RH  025%=      5-min Rain = 0
KST3 182235Z 17012KT 38/15 A2984 RMK A01 T03800146  RH  025%=      5-min Rain = 0
KST3 182236Z 17016KT 38/15 A2984 RMK A01 T03820149  RH  025%=      5-min Rain = 0
KST3 182237Z 17015G20KT 38/15 A2983 RMK A01 T03820145  RH  025%=      5-min Rain = 0
KST3 182238Z 18015KT 38/15 A2984 RMK A01 T03830149  RH  025%=      5-min Rain = 0
KST3 182239Z 18016KT 38/15 A2984 RMK A01 T03840148  RH  025%=      5-min Rain = 0
KST3 182240Z 17014KT 38/15 A2984 RMK A01 T03840146  RH  025%=      5-min Rain = 0
KST3 182241Z 17016KT 38/15 A2983 RMK A01 T03820146  RH  025%=      5-min Rain = 0
KST3 182242Z 17014G20KT 38/15 A2983 RMK A01 T03820146  RH  025%=      5-min Rain = 0
KST3 182243Z 18015KT 38/15 A2983 RMK A01 T03810147  RH  025%=      5-min Rain = 0
KST3 182244Z 19015G21KT 38/15 A2983 RMK A01 T03830150  RH  025%=      5-min Rain = 0
KST3 182245Z 19017KT 39/15 A2983 RMK A01 T03850145  RH  024%=      5-min Rain = 0
KST3 182246Z 19017KT 38/14 A2983 RMK A01 T03830140  RH  024%=      5-min Rain = 0
KST3 182247Z 18017G22KT 38/14 A2983 RMK A01 T03800142  RH  024%=      5-min Rain = 0
KST3 182248Z 18021KT 38/14 A2983 RMK A01 T03800141  RH  024%=      5-min Rain = 0
KST3 182249Z 18019KT 38/14 A2983 RMK A01 T03800141  RH  024%=      5-min Rain = 0
KST3 182250Z 17018KT 38/14 A2983 RMK A01 T03800141  RH  024%=      5-min Rain = 0
KST3 182251Z 18016KT 38/15 A2983 RMK A01 T03810145  RH  025%=      5-min Rain = 0
KST3 182252Z 18015KT 38/14 A2983 RMK A01 T03810142  RH  024%=      5-min Rain = 0
KST3 182253Z 19014KT 38/15 A2983 RMK A01 T03820146  RH  025%=      5-min Rain = 0
KST3 182254Z 19016KT 38/15 A2983 RMK A01 T03820145  RH  025%=      5-min Rain = 0
KST3 182255Z 19014KT 38/14 A2983 RMK A01 T03820144  RH  024%=      5-min Rain = 0
KST3 182256Z 17016KT 38/15 A2983 RMK A01 T03820145  RH  025%=      5-min Rain = 0
KST3 182257Z 17015KT 38/14 A2983 RMK A01 T03800142  RH  024%=      5-min Rain = 0
KST3 182258Z 18015G21KT 38/14 A2983 RMK A01 T03790143  RH  025%=      5-min Rain = 0
KST3 182259Z 16017KT 38/14 A2983 RMK A01 T03790144  RH  025%=      5-min Rain = 0
KST3 182300Z 17019KT 38/14 A2983 RMK A01 T03790143  RH  025%=      5-min Rain = 0
KST3 182301Z 17020KT 38/14 A2983 RMK A01 T03790143  RH  025%=      5-min Rain = 0
KST3 182302Z 17016KT 38/14 A2983 RMK A01 T03780144  RH  025%=      5-min Rain = 0
KST3 182303Z 17016KT 38/15 A2983 RMK A01 T03790147  RH  025%=      5-min Rain = 0
KST3 182304Z 17020KT 38/15 A2983 RMK A01 T03800145  RH  025%=      5-min Rain = 0
KST3 182305Z 17016G22KT 38/14 A2983 RMK A01 T03790144  RH  025%=      5-min Rain = 0
KST3 182306Z 16016KT 38/15 A2983 RMK A01 T03790147  RH  025%=      5-min Rain = 0
KST3 182307Z 16019KT 38/14 A2983 RMK A01 T03790144  RH  025%=      5-min Rain = 0
KST3 182308Z 17014KT 38/15 A2983 RMK A01 T03780145  RH  025%=      5-min Rain = 0
KST3 182309Z 16014KT 38/15 A2983 RMK A01 T03780148  RH  026%=      5-min Rain = 0
KST3 182310Z 18017KT 38/15 A2983 RMK A01 T03790147  RH  025%=      5-min Rain = 0
KST3 182311Z 18019KT 38/14 A2983 RMK A01 T03800144  RH  025%=      5-min Rain = 0
KST3 182312Z 18020KT 38/14 A2983 RMK A01 T03800143  RH  025%=      5-min Rain = 0
KST3 182313Z 17016KT 38/14 A2983 RMK A01 T03790144  RH  025%=      5-min Rain = 0
KST3 182314Z 17015G21KT 38/15 A2983 RMK A01 T03780145  RH  025%=      5-min Rain = 0
KST3 182315Z 17018G23KT 38/14 A2983 RMK A01 T03790144  RH  025%=      5-min Rain = 0
KST3 182316Z 17018G23KT 38/14 A2983 RMK A01 T03790144  RH  025%=      5-min Rain = 0
KST3 182317Z 17014KT 38/15 A2983 RMK A01 T03790146  RH  025%=      5-min Rain = 0
KST3 182318Z 17016KT 38/15 A2983 RMK A01 T03780146  RH  025%=      5-min Rain = 0
KST3 182319Z 17017KT 38/15 A2983 RMK A01 T03790145  RH  025%=      5-min Rain = 0
KST3 182320Z 17019KT 38/15 A2983 RMK A01 T03790146  RH  025%=      5-min Rain = 0
KST3 182321Z 17017KT 38/15 A2983 RMK A01 T03780145  RH  025%=      5-min Rain = 0
KST3 182322Z 18018KT 38/15 A2983 RMK A01 T03780145  RH  025%=      5-min Rain = 0
KST3 182323Z 17017KT 38/14 A2983 RMK A01 T03770143  RH  025%=      5-min Rain = 0
KST3 182324Z 18017KT 38/14 A2983 RMK A01 T03760144  RH  025%=      5-min Rain = 0
KST3 182325Z 17016G22KT 38/14 A2983 RMK A01 T03760144  RH  025%=      5-min Rain = 0
KST3 182326Z 17018G23KT 38/14 A2982 RMK A01 T03760143  RH  025%=      5-min Rain = 0
KST3 182327Z 18017G22KT 38/15 A2983 RMK A01 T03760146  RH  026%=      5-min Rain = 0
KST3 182328Z 18016KT 38/15 A2983 RMK A01 T03770145  RH  025%=      5-min Rain = 0
KST3 182329Z 18015KT 38/15 A2983 RMK A01 T03770146  RH  026%=      5-min Rain = 0
KST3 182330Z 18015KT 38/15 A2983 RMK A01 T03770146  RH  025%=      5-min Rain = 0
KST3 182331Z 18011KT 38/15 A2983 RMK A01 T03770149  RH  026%=      5-min Rain = 0
KST3 182332Z 17011KT 38/15 A2983 RMK A01 T03790152  RH  026%=      5-min Rain = 0
KST3 182333Z 17017G22KT 38/15 A2982 RMK A01 T03800147  RH  025%=      5-min Rain = 0
KST3 182334Z 17016KT 38/15 A2982 RMK A01 T03790145  RH  025%=      5-min Rain = 0
KST3 182335Z 18016KT 38/14 A2982 RMK A01 T03780144  RH  025%=      5-min Rain = 0
KST3 182336Z 19015KT 38/14 A2982 RMK A01 T03780144  RH  025%=      5-min Rain = 0
KST3 182337Z 18013G18KT 38/15 A2982 RMK A01 T03780145  RH  025%=      5-min Rain = 0
KST3 182338Z 18010KT 38/15 A2982 RMK A01 T03780149  RH  026%=      5-min Rain = 0
KST3 182339Z 17014KT 38/15 A2982 RMK A01 T03780148  RH  026%=      5-min Rain = 0
KST3 182340Z 17018G24KT 38/15 A2982 RMK A01 T03780145  RH  025%=      5-min Rain = 0
KST3 182341Z 17017G24KT 38/15 A2982 RMK A01 T03770145  RH  025%=      5-min Rain = 0
KST3 182342Z 18012KT 38/15 A2983 RMK A01 T03760149  RH  026%=      5-min Rain = 0
KST3 182343Z 17016KT 38/15 A2982 RMK A01 T03770149  RH  026%=      5-min Rain = 0
KST3 182344Z 17018KT 38/15 A2982 RMK A01 T03770147  RH  026%=      5-min Rain = 0
KST3 182345Z 18015KT 38/15 A2983 RMK A01 T03760148  RH  026%=      5-min Rain = 0
KST3 182346Z 19017G22KT 38/15 A2983 RMK A01 T03760148  RH  026%=      5-min Rain = 0
KST3 182347Z 18018KT 38/14 A2982 RMK A01 T03770144  RH  025%=      5-min Rain = 0
KST3 182348Z 18017KT 38/14 A2982 RMK A01 T03770144  RH  025%=      5-min Rain = 0
KST3 182349Z 18017KT 38/14 A2983 RMK A01 T03770144  RH  025%=      5-min Rain = 0
KST3 182350Z 17017KT 38/14 A2982 RMK A01 T03770143  RH  025%=      5-min Rain = 0
KST3 182351Z 18015KT 38/14 A2982 RMK A01 T03760144  RH  025%=      5-min Rain = 0
KST3 182352Z 18013KT 38/15 A2983 RMK A01 T03760145  RH  025%=      5-min Rain = 0
KST3 182353Z 17016KT 38/15 A2982 RMK A01 T03760145  RH  025%=      5-min Rain = 0
KST3 182354Z 17016KT 38/14 A2982 RMK A01 T03760144  RH  025%=      5-min Rain = 0
KST3 182355Z 18015KT 38/15 A2982 RMK A01 T03760146  RH  026%=      5-min Rain = 0
KST3 182356Z 17013KT 38/15 A2982 RMK A01 T03760147  RH  026%=      5-min Rain = 0
KST3 182357Z 17012KT 38/15 A2982 RMK A01 T03760147  RH  026%=      5-min Rain = 0
KST3 182358Z 18012KT 38/15 A2982 RMK A01 T03760148  RH  026%=      5-min Rain = 0
KST3 182359Z 19013G19KT 38/15 A2982 RMK A01 T03760150  RH  026%=      5-min Rain = 0
KST3 190000Z 19013KT 38/15 A2982 RMK A01 T03760146  RH  026%=      5-min Rain = 0
KST3 190001Z 19014KT 38/15 A2982 RMK A01 T03760147  RH  026%=      5-min Rain = 0
KST3 190002Z 18013G19KT 38/15 A2982 RMK A01 T03760150  RH  026%=      5-min Rain = 0
KST3 190003Z 18017KT 38/15 A2982 RMK A01 T03760148  RH  026%=      5-min Rain = 0
KST3 190004Z 18018KT 38/15 A2982 RMK A01 T03750147  RH  026%=      5-min Rain = 0
KST3 190005Z 17018KT 37/15 A2982 RMK A01 T03740146  RH  026%=      5-min Rain = 0
KST3 190006Z 17014KT 37/15 A2982 RMK A01 T03730148  RH  026%=      5-min Rain = 0
KST3 190007Z 18016KT 37/15 A2982 RMK A01 T03730148  RH  026%=      5-min Rain = 0
KST3 190008Z 18015KT 37/15 A2982 RMK A01 T03730148  RH  026%=      5-min Rain = 0
KST3 190009Z 18016KT 37/15 A2982 RMK A01 T03730148  RH  026%=      5-min Rain = 0
KST3 190010Z 17012KT 37/15 A2982 RMK A01 T03720149  RH  027%=      5-min Rain = 0
KST3 190011Z 18014KT 37/15 A2982 RMK A01 T03720151  RH  027%=      5-min Rain = 0
KST3 190012Z 18014KT 37/15 A2982 RMK A01 T03720153  RH  027%=      5-min Rain = 0
KST3 190013Z 17016KT 37/15 A2982 RMK A01 T03720150  RH  027%=      5-min Rain = 0
KST3 190014Z 17015KT 37/15 A2982 RMK A01 T03730149  RH  027%=      5-min Rain = 0
KST3 190015Z 17015G20KT 37/15 A2982 RMK A01 T03720148  RH  026%=      5-min Rain = 0
KST3 190016Z 18014G19KT 37/15 A2982 RMK A01 T03720149  RH  027%=      5-min Rain = 0
KST3 190017Z 17014KT 37/15 A2982 RMK A01 T03720151  RH  027%=      5-min Rain = 0
KST3 190018Z 17013KT 37/15 A2982 RMK A01 T03720149  RH  027%=      5-min Rain = 0
KST3 190019Z 17012G18KT 37/15 A2982 RMK A01 T03710150  RH  027%=      5-min Rain = 0
KST3 190020Z 17015KT 37/15 A2982 RMK A01 T03710149  RH  027%=      5-min Rain = 0
KST3 190021Z 17015G20KT 37/15 A2982 RMK A01 T03710149  RH  027%=      5-min Rain = 0
KST3 190022Z 17017KT 37/15 A2982 RMK A01 T03710148  RH  027%=      5-min Rain = 0
KST3 190023Z 17015KT 37/15 A2982 RMK A01 T03710149  RH  027%=      5-min Rain = 0
KST3 190024Z 17016KT 37/15 A2982 RMK A01 T03710149  RH  027%=      5-min Rain = 0
KST3 190025Z 17013KT 37/15 A2982 RMK A01 T03700149  RH  027%=      5-min Rain = 0
KST3 190026Z 17015KT 37/15 A2983 RMK A01 T03700150  RH  027%=      5-min Rain = 0
KST3 190027Z 17014KT 37/15 A2983 RMK A01 T03700151  RH  027%=      5-min Rain = 0
KST3 190028Z 18013KT 37/15 A2983 RMK A01 T03690150  RH  027%=      5-min Rain = 0
KST3 190029Z 18014KT 37/15 A2982 RMK A01 T03690152  RH  028%=      5-min Rain = 0
KST3 190030Z 18013KT 37/15 A2983 RMK A01 T03690152  RH  028%=      5-min Rain = 0
KST3 190031Z 18018KT 37/15 A2982 RMK A01 T03690151  RH  027%=      5-min Rain = 0
KST3 190032Z 18013KT 37/15 A2983 RMK A01 T03680150  RH  027%=      5-min Rain = 0
KST3 190033Z 17015KT 37/15 A2982 RMK A01 T03680151  RH  028%=      5-min Rain = 0
KST3 190034Z 18015KT 37/15 A2982 RMK A01 T03670150  RH  027%=      5-min Rain = 0
KST3 190035Z 17016KT 37/15 A2982 RMK A01 T03670148  RH  027%=      5-min Rain = 0
KST3 190036Z 17016KT 37/15 A2982 RMK A01 T03680149  RH  027%=      5-min Rain = 0
KST3 190037Z 17016KT 37/15 A2982 RMK A01 T03680151  RH  028%=      5-min Rain = 0
KST3 190038Z 18016KT 37/15 A2982 RMK A01 T03680149  RH  027%=      5-min Rain = 0
KST3 190039Z 17015KT 37/15 A2983 RMK A01 T03670148  RH  027%=      5-min Rain = 0
KST3 190040Z 17016KT 37/15 A2982 RMK A01 T03680149  RH  027%=      5-min Rain = 0
KST3 190041Z 18013KT 37/15 A2983 RMK A01 T03680150  RH  028%=      5-min Rain = 0
KST3 190042Z 18017KT 37/15 A2982 RMK A01 T03680149  RH  027%=      5-min Rain = 0
KST3 190043Z 18014KT 37/15 A2982 RMK A01 T03680149  RH  027%=      5-min Rain = 0
KST3 190044Z 18014KT 37/15 A2983 RMK A01 T03670150  RH  028%=      5-min Rain = 0
KST3 190045Z 17017KT 37/15 A2982 RMK A01 T03670150  RH  028%=      5-min Rain = 0
KST3 190046Z 17014KT 37/15 A2983 RMK A01 T03660149  RH  027%=      5-min Rain = 0
KST3 190047Z 17015KT 37/15 A2983 RMK A01 T03670150  RH  028%=      5-min Rain = 0
KST3 190048Z 17016KT 37/15 A2983 RMK A01 T03660148  RH  027%=      5-min Rain = 0
KST3 190049Z 17015G21KT 37/15 A2982 RMK A01 T03660147  RH  027%=      5-min Rain = 0
KST3 190050Z 17013KT 37/15 A2983 RMK A01 T03660150  RH  028%=      5-min Rain = 0
KST3 190051Z 17014KT 37/15 A2983 RMK A01 T03660150  RH  028%=      5-min Rain = 0
KST3 190052Z 17013KT 37/15 A2983 RMK A01 T03660149  RH  028%=      5-min Rain = 0
KST3 190053Z 17016KT 37/15 A2983 RMK A01 T03660148  RH  027%=      5-min Rain = 0
KST3 190054Z 18011KT 37/15 A2983 RMK A01 T03660147  RH  027%=      5-min Rain = 0
KST3 190055Z 17011KT 37/15 A2983 RMK A01 T03650149  RH  028%=      5-min Rain = 0
KST3 190056Z 17014KT 37/15 A2983 RMK A01 T03650150  RH  028%=      5-min Rain = 0
KST3 190057Z 17014KT 36/15 A2983 RMK A01 T03640150  RH  028%=      5-min Rain = 0
KST3 190058Z 17012KT 36/15 A2983 RMK A01 T03640149  RH  028%=      5-min Rain = 0
KST3 190059Z 18012KT 36/15 A2983 RMK A01 T03640151  RH  028%=      5-min Rain = 0
KST3 190100Z 17014KT 36/15 A2983 RMK A01 T03640150  RH  028%=      5-min Rain = 0
KST3 190101Z 18011KT 36/15 A2983 RMK A01 T03640151  RH  028%=      5-min Rain = 0
KST3 190102Z 16015KT 36/15 A2983 RMK A01 T03630150  RH  028%=      5-min Rain = 0
KST3 190103Z 18013KT 36/15 A2983 RMK A01 T03630151  RH  028%=      5-min Rain = 0
KST3 190104Z 18011KT 36/15 A2983 RMK A01 T03630151  RH  028%=      5-min Rain = 0
KST3 190105Z 18014KT 36/15 A2983 RMK A01 T03620151  RH  028%=      5-min Rain = 0
KST3 190106Z 17016KT 36/15 A2983 RMK A01 T03620149  RH  028%=      5-min Rain = 0
KST3 190107Z 17014KT 36/15 A2983 RMK A01 T03620149  RH  028%=      5-min Rain = 0
KST3 190108Z 18014KT 36/15 A2983 RMK A01 T03610149  RH  028%=      5-min Rain = 0
KST3 190109Z 17011KT 36/15 A2983 RMK A01 T03610150  RH  029%=      5-min Rain = 0
KST3 190110Z 18011KT 36/15 A2983 RMK A01 T03600152  RH  029%=      5-min Rain = 0
KST3 190111Z 17011KT 36/15 A2983 RMK A01 T03590151  RH  029%=      5-min Rain = 0
KST3 190112Z 17013KT 36/15 A2983 RMK A01 T03590151  RH  029%=      5-min Rain = 0
KST3 190113Z 17012G17KT 36/15 A2983 RMK A01 T03580150  RH  029%=      5-min Rain = 0
KST3 190114Z 17014KT 36/15 A2983 RMK A01 T03580149  RH  029%=      5-min Rain = 0
KST3 190115Z 17013KT 36/15 A2983 RMK A01 T03580149  RH  029%=      5-min Rain = 0
KST3 190116Z 17012KT 36/15 A2983 RMK A01 T03580150  RH  029%=      5-min Rain = 0
KST3 190117Z 17010KT 36/15 A2983 RMK A01 T03570150  RH  029%=      5-min Rain = 0
KST3 190118Z 17010KT 36/15 A2983 RMK A01 T03570151  RH  029%=      5-min Rain = 0
KST3 190119Z 17010KT 36/15 A2983 RMK A01 T03560151  RH  030%=      5-min Rain = 0
KST3 190120Z 17009KT 36/15 A2983 RMK A01 T03550152  RH  030%=      5-min Rain = 0
KST3 190121Z 17011KT 36/15 A2983 RMK A01 T03550151  RH  030%=      5-min Rain = 0
KST3 190122Z 17015G20KT 36/15 A2983 RMK A01 T03550150  RH  029%=      5-min Rain = 0
KST3 190123Z 17013KT 36/15 A2983 RMK A01 T03550148  RH  029%=      5-min Rain = 0
KST3 190124Z 18012KT 36/15 A2983 RMK A01 T03560149  RH  029%=      5-min Rain = 0
KST3 190125Z 17010KT 36/15 A2983 RMK A01 T03550150  RH  029%=      5-min Rain = 0
KST3 190126Z 17011KT 35/15 A2983 RMK A01 T03540150  RH  030%=      5-min Rain = 0
KST3 190127Z 18010KT 35/15 A2983 RMK A01 T03540150  RH  030%=      5-min Rain = 0
KST3 190128Z 17012KT 35/15 A2983 RMK A01 T03530150  RH  030%=      5-min Rain = 0
KST3 190129Z 17011KT 35/15 A2983 RMK A01 T03530151  RH  030%=      5-min Rain = 0
KST3 190130Z 17011KT 35/15 A2983 RMK A01 T03520150  RH  030%=      5-min Rain = 0
KST3 190131Z 17010KT 35/15 A2983 RMK A01 T03510150  RH  030%=      5-min Rain = 0
KST3 190132Z 17010KT 35/15 A2984 RMK A01 T03510150  RH  030%=      5-min Rain = 0
KST3 190133Z 17010KT 35/15 A2984 RMK A01 T03510150  RH  030%=      5-min Rain = 0
KST3 190134Z 17010KT 35/15 A2984 RMK A01 T03510150  RH  030%=      5-min Rain = 0
KST3 190135Z 17010KT 35/15 A2984 RMK A01 T03510150  RH  030%=      5-min Rain = 0
KST3 190136Z 17010KT 35/15 A2984 RMK A01 T03500151  RH  030%=      5-min Rain = 0
KST3 190137Z 17009KT 35/15 A2984 RMK A01 T03500151  RH  030%=      5-min Rain = 0
KST3 190138Z 16009KT 35/15 A2984 RMK A01 T03490151  RH  031%=      5-min Rain = 0
KST3 190139Z 17008KT 35/15 A2984 RMK A01 T03480151  RH  031%=      5-min Rain = 0
KST3 190140Z 16007KT 35/15 A2984 RMK A01 T03470152  RH  031%=      5-min Rain = 0
KST3 190141Z 17007KT 35/15 A2984 RMK A01 T03450152  RH  032%=      5-min Rain = 0
KST3 190142Z 16008KT 34/15 A2984 RMK A01 T03440152  RH  032%=      5-min Rain = 0
KST3 190143Z 16009KT 34/15 A2984 RMK A01 T03430151  RH  032%=      5-min Rain = 0
KST3 190144Z 17009KT 34/15 A2984 RMK A01 T03430152  RH  032%=      5-min Rain = 0
KST3 190145Z 16008KT 34/15 A2984 RMK A01 T03430152  RH  032%=      5-min Rain = 0
KST3 190146Z 16010KT 34/15 A2984 RMK A01 T03430152  RH  032%=      5-min Rain = 0
KST3 190147Z 17009KT 34/15 A2984 RMK A01 T03420152  RH  032%=      5-min Rain = 0
KST3 190148Z 16009KT 34/15 A2984 RMK A01 T03420152  RH  032%=      5-min Rain = 0
KST3 190149Z 17008KT 34/15 A2984 RMK A01 T03420153  RH  032%=      5-min Rain = 0
KST3 190150Z 16009KT 34/15 A2984 RMK A01 T03410153  RH  033%=      5-min Rain = 0
KST3 190151Z 17009KT 34/15 A2984 RMK A01 T03400153  RH  033%=      5-min Rain = 0
KST3 190152Z 17009KT 34/15 A2984 RMK A01 T03400153  RH  033%=      5-min Rain = 0
KST3 190153Z 16009KT 34/15 A2984 RMK A01 T03400153  RH  033%=      5-min Rain = 0
KST3 190154Z 17010KT 34/15 A2984 RMK A01 T03390153  RH  033%=      5-min Rain = 0
KST3 190155Z 17011KT 34/15 A2984 RMK A01 T03390153  RH  033%=      5-min Rain = 0
KST3 190156Z 17011KT 34/15 A2984 RMK A01 T03390152  RH  032%=      5-min Rain = 0
KST3 190157Z 16010KT 34/15 A2984 RMK A01 T03400152  RH  032%=      5-min Rain = 0
KST3 190158Z 17011KT 34/15 A2984 RMK A01 T03400152  RH  033%=      5-min Rain = 0
KST3 190159Z 17010KT 34/15 A2984 RMK A01 T03390152  RH  033%=      5-min Rain = 0
KST3 190200Z 17011KT 34/15 A2984 RMK A01 T03390151  RH  032%=      5-min Rain = 0
KST3 190201Z 17009KT 34/15 A2984 RMK A01 T03390151  RH  032%=      5-min Rain = 0
KST3 190202Z 17011KT 34/15 A2984 RMK A01 T03390152  RH  033%=      5-min Rain = 0
KST3 190203Z 17010KT 34/15 A2984 RMK A01 T03390151  RH  032%=      5-min Rain = 0
KST3 190204Z 17010KT 34/15 A2984 RMK A01 T03390151  RH  032%=      5-min Rain = 0
KST3 190205Z 17009KT 34/15 A2984 RMK A01 T03380151  RH  033%=      5-min Rain = 0
KST3 190206Z 17011KT 34/15 A2984 RMK A01 T03370151  RH  033%=      5-min Rain = 0
KST3 190207Z 17010KT 34/15 A2984 RMK A01 T03370150  RH  033%=      5-min Rain = 0
KST3 190208Z 17011KT 34/15 A2984 RMK A01 T03370151  RH  033%=      5-min Rain = 0
KST3 190209Z 17011KT 34/15 A2984 RMK A01 T03370151  RH  033%=      5-min Rain = 0
KST3 190210Z 17009KT 34/15 A2984 RMK A01 T03360151  RH  033%=      5-min Rain = 0
KST3 190211Z 17010KT 34/15 A2984 RMK A01 T03350151  RH  033%=      5-min Rain = 0
KST3 190212Z 17010KT 34/15 A2984 RMK A01 T03350150  RH  033%=      5-min Rain = 0
KST3 190213Z 17011KT 34/15 A2984 RMK A01 T03350150  RH  033%=      5-min Rain = 0
KST3 190214Z 17008KT 34/15 A2984 RMK A01 T03350150  RH  033%=      5-min Rain = 0
KST3 190215Z 17011KT 34/15 A2984 RMK A01 T03350150  RH  033%=      5-min Rain = 0
KST3 190216Z 17009KT 34/15 A2984 RMK A01 T03350150  RH  033%=      5-min Rain = 0
KST3 190217Z 17009KT 33/15 A2984 RMK A01 T03340150  RH  033%=      5-min Rain = 0
KST3 190218Z 17008KT 33/15 A2984 RMK A01 T03340150  RH  033%=      5-min Rain = 0
KST3 190219Z 17010KT 33/15 A2984 RMK A01 T03320150  RH  033%=      5-min Rain = 0
KST3 190220Z 17010KT 33/15 A2984 RMK A01 T03320150  RH  033%=      5-min Rain = 0
KST3 190221Z 17009KT 33/15 A2984 RMK A01 T03320149  RH  033%=      5-min Rain = 0
KST3 190222Z 17011KT 33/15 A2984 RMK A01 T03320150  RH  033%=      5-min Rain = 0
KST3 190223Z 17011KT 33/15 A2984 RMK A01 T03320149  RH  033%=      5-min Rain = 0
KST3 190224Z 17010KT 33/15 A2984 RMK A01 T03320149  RH  033%=      5-min Rain = 0
KST3 190225Z 17010KT 33/15 A2984 RMK A01 T03330149  RH  033%=      5-min Rain = 0
KST3 190226Z 17008KT 33/15 A2984 RMK A01 T03330149  RH  033%=      5-min Rain = 0
KST3 190227Z 17009KT 33/15 A2984 RMK A01 T03320149  RH  033%=      5-min Rain = 0
KST3 190228Z 17010KT 33/15 A2985 RMK A01 T03300149  RH  034%=      5-min Rain = 0
KST3 190229Z 17010KT 33/15 A2984 RMK A01 T03300149  RH  034%=      5-min Rain = 0
KST3 190230Z 17010KT 33/15 A2985 RMK A01 T03300148  RH  033%=      5-min Rain = 0
KST3 190231Z 17010KT 33/15 A2985 RMK A01 T03310149  RH  033%=      5-min Rain = 0
KST3 190232Z 17011KT 33/15 A2985 RMK A01 T03310149  RH  034%=      5-min Rain = 0
KST3 190233Z 17010KT 33/15 A2985 RMK A01 T03300148  RH  033%=      5-min Rain = 0
KST3 190234Z 17011KT 33/15 A2985 RMK A01 T03300148  RH  033%=      5-min Rain = 0
KST3 190235Z 17010KT 33/15 A2985 RMK A01 T03300149  RH  034%=      5-min Rain = 0
KST3 190236Z 17010KT 33/15 A2985 RMK A01 T03290149  RH  034%=      5-min Rain = 0
KST3 190237Z 17012KT 33/15 A2985 RMK A01 T03290148  RH  034%=      5-min Rain = 0
KST3 190238Z 18012KT 33/15 A2985 RMK A01 T03290148  RH  033%=      5-min Rain = 0
KST3 190239Z 17012KT 33/15 A2985 RMK A01 T03290148  RH  033%=      5-min Rain = 0
KST3 190240Z 17011KT 33/15 A2985 RMK A01 T03290147  RH  033%=      5-min Rain = 0
KST3 190241Z 18011KT 33/15 A2985 RMK A01 T03300147  RH  033%=      5-min Rain = 0
KST3 190242Z 17010KT 33/15 A2985 RMK A01 T03300148  RH  033%=      5-min Rain = 0
KST3 190243Z 17011KT 33/15 A2985 RMK A01 T03290148  RH  034%=      5-min Rain = 0
KST3 190244Z 18011KT 33/15 A2985 RMK A01 T03290148  RH  034%=      5-min Rain = 0
KST3 190245Z 18010KT 33/15 A2985 RMK A01 T03280148  RH  034%=      5-min Rain = 0
KST3 190246Z 17011KT 33/15 A2985 RMK A01 T03280148  RH  034%=      5-min Rain = 0
KST3 190247Z 17013KT 33/15 A2985 RMK A01 T03270147  RH  034%=      5-min Rain = 0
KST3 190248Z 17012KT 33/15 A2985 RMK A01 T03280147  RH  034%=      5-min Rain = 0
KST3 190249Z 17012KT 33/15 A2985 RMK A01 T03280147  RH  034%=      5-min Rain = 0
KST3 190250Z 18010KT 33/15 A2985 RMK A01 T03280148  RH  034%=      5-min Rain = 0
KST3 190251Z 17010KT 33/15 A2985 RMK A01 T03270148  RH  034%=      5-min Rain = 0
KST3 190252Z 18012KT 33/15 A2985 RMK A01 T03260148  RH  034%=      5-min Rain = 0
KST3 190253Z 17013KT 33/15 A2985 RMK A01 T03260147  RH  034%=      5-min Rain = 0
KST3 190254Z 17011KT 33/15 A2985 RMK A01 T03270147  RH  034%=      5-min Rain = 0
KST3 190255Z 17011KT 33/15 A2985 RMK A01 T03270148  RH  034%=      5-min Rain = 0
KST3 190256Z 17013KT 33/15 A2985 RMK A01 T03260148  RH  034%=      5-min Rain = 0
KST3 190257Z 18011KT 33/15 A2985 RMK A01 T03250147  RH  034%=      5-min Rain = 0
KST3 190258Z 18012KT 33/15 A2985 RMK A01 T03250147  RH  034%=      5-min Rain = 0
KST3 190259Z 17014KT 33/15 A2985 RMK A01 T03260147  RH  034%=      5-min Rain = 0
KST3 190300Z 17012KT 33/15 A2985 RMK A01 T03260148  RH  034%=      5-min Rain = 0
KST3 190301Z 17012KT 33/15 A2985 RMK A01 T03260148  RH  034%=      5-min Rain = 0
KST3 190302Z 17012KT 33/15 A2985 RMK A01 T03250148  RH  034%=      5-min Rain = 0
KST3 190303Z 17010KT 33/15 A2985 RMK A01 T03250148  RH  034%=      5-min Rain = 0
KST3 190304Z 17011KT 32/15 A2985 RMK A01 T03240148  RH  035%=      5-min Rain = 0
KST3 190305Z 17012KT 32/15 A2985 RMK A01 T03240148  RH  035%=      5-min Rain = 0
KST3 190306Z 18013KT 32/15 A2985 RMK A01 T03240149  RH  035%=      5-min Rain = 0
KST3 190307Z 17013KT 32/15 A2985 RMK A01 T03240149  RH  035%=      5-min Rain = 0
KST3 190308Z 18014KT 32/15 A2985 RMK A01 T03240149  RH  035%=      5-min Rain = 0
KST3 190309Z 18014KT 32/15 A2985 RMK A01 T03240149  RH  035%=      5-min Rain = 0
KST3 190310Z 18016KT 32/15 A2985 RMK A01 T03240150  RH  035%=      5-min Rain = 0
KST3 190311Z 17013KT 32/15 A2986 RMK A01 T03240150  RH  035%=      5-min Rain = 0
KST3 190312Z 18015KT 32/15 A2986 RMK A01 T03240150  RH  035%=      5-min Rain = 0
KST3 190313Z 18014KT 32/15 A2986 RMK A01 T03240151  RH  035%=      5-min Rain = 0
KST3 190314Z 18014KT 32/15 A2986 RMK A01 T03230151  RH  035%=      5-min Rain = 0
KST3 190315Z 17015KT 32/15 A2986 RMK A01 T03220151  RH  036%=      5-min Rain = 0
KST3 190316Z 18013KT 32/15 A2986 RMK A01 T03220151  RH  036%=      5-min Rain = 0
KST3 190317Z 18013G21KT 32/15 A2986 RMK A01 T03220152  RH  036%=      5-min Rain = 0
KST3 190318Z 18013G19KT 32/15 A2986 RMK A01 T03210152  RH  036%=      5-min Rain = 0
KST3 190319Z 18013KT 32/15 A2986 RMK A01 T03210152  RH  036%=      5-min Rain = 0
KST3 190320Z 18012KT 32/15 A2986 RMK A01 T03210152  RH  036%=      5-min Rain = 0
KST3 190321Z 18015KT 32/15 A2986 RMK A01 T03200153  RH  036%=      5-min Rain = 0
KST3 190322Z 18014KT 32/15 A2986 RMK A01 T03200152  RH  036%=      5-min Rain = 0
KST3 190323Z 18013KT 32/15 A2986 RMK A01 T03210153  RH  036%=      5-min Rain = 0
KST3 190324Z 18012G19KT 32/15 A2986 RMK A01 T03200153  RH  036%=      5-min Rain = 0
KST3 190325Z 18011KT 32/15 A2986 RMK A01 T03190153  RH  037%=      5-min Rain = 0
KST3 190326Z 18012KT 32/15 A2986 RMK A01 T03190153  RH  037%=      5-min Rain = 0
KST3 190327Z 18014KT 32/15 A2986 RMK A01 T03190153  RH  037%=      5-min Rain = 0
KST3 190328Z 18012KT 32/15 A2987 RMK A01 T03190153  RH  037%=      5-min Rain = 0
KST3 190329Z 18012KT 32/15 A2987 RMK A01 T03190153  RH  037%=      5-min Rain = 0
KST3 190330Z 18014KT 32/15 A2987 RMK A01 T03190154  RH  037%=      5-min Rain = 0
KST3 190331Z 18014KT 32/15 A2987 RMK A01 T03190154  RH  037%=      5-min Rain = 0
KST3 190332Z 18012KT 32/15 A2987 RMK A01 T03190154  RH  037%=      5-min Rain = 0
KST3 190333Z 18013G18KT 32/15 A2987 RMK A01 T03190154  RH  037%=      5-min Rain = 0
KST3 190334Z 18013KT 32/15 A2987 RMK A01 T03190154  RH  037%=      5-min Rain = 0
KST3 190335Z 18016KT 32/15 A2987 RMK A01 T03200154  RH  037%=      5-min Rain = 0
KST3 190336Z 18014KT 32/15 A2987 RMK A01 T03200154  RH  037%=      5-min Rain = 0
KST3 190337Z 18015KT 32/15 A2987 RMK A01 T03200154  RH  037%=      5-min Rain = 0
KST3 190338Z 18014KT 32/15 A2987 RMK A01 T03210154  RH  037%=      5-min Rain = 0
KST3 190339Z 18014KT 32/15 A2987 RMK A01 T03200154  RH  037%=      5-min Rain = 0
KST3 190340Z 18014KT 32/15 A2987 RMK A01 T03200154  RH  037%=      5-min Rain = 0
KST3 190341Z 18013G19KT 32/15 A2987 RMK A01 T03190154  RH  037%=      5-min Rain = 0
KST3 190342Z 18012KT 32/15 A2987 RMK A01 T03190154  RH  037%=      5-min Rain = 0
KST3 190343Z 18014KT 32/15 A2987 RMK A01 T03190154  RH  037%=      5-min Rain = 0
KST3 190344Z 18014KT 32/16 A2987 RMK A01 T03190155  RH  037%=      5-min Rain = 0
KST3 190345Z 18015KT 32/16 A2987 RMK A01 T03190155  RH  037%=      5-min Rain = 0
KST3 190346Z 18012KT 32/15 A2987 RMK A01 T03180154  RH  037%=      5-min Rain = 0
KST3 190347Z 18012KT 32/16 A2987 RMK A01 T03180155  RH  037%=      5-min Rain = 0
KST3 190348Z 18015KT 32/16 A2987 RMK A01 T03170155  RH  037%=      5-min Rain = 0
KST3 190349Z 18013KT 32/15 A2987 RMK A01 T03170154  RH  037%=      5-min Rain = 0
KST3 190350Z 18012KT 32/16 A2988 RMK A01 T03180155  RH  037%=      5-min Rain = 0
KST3 190351Z 18013KT 32/16 A2987 RMK A01 T03170155  RH  038%=      5-min Rain = 0
KST3 190352Z 18013KT 32/15 A2988 RMK A01 T03170154  RH  038%=      5-min Rain = 0
KST3 190353Z 18013KT 32/15 A2988 RMK A01 T03170154  RH  038%=      5-min Rain = 0
KST3 190354Z 18012KT 32/16 A2988 RMK A01 T03170155  RH  037%=      5-min Rain = 0
KST3 190355Z 18013G18KT 32/16 A2988 RMK A01 T03170155  RH  038%=      5-min Rain = 0
KST3 190356Z 18013KT 32/16 A2988 RMK A01 T03170155  RH  038%=      5-min Rain = 0
KST3 190357Z 18012KT 32/16 A2988 RMK A01 T03160155  RH  038%=      5-min Rain = 0
KST3 190358Z 18015KT 32/16 A2988 RMK A01 T03160155  RH  038%=      5-min Rain = 0
KST3 190359Z 18013KT 32/16 A2988 RMK A01 T03160155  RH  038%=      5-min Rain = 0
KST3 190400Z 18013KT 32/16 A2988 RMK A01 T03160155  RH  038%=      5-min Rain = 0
KST3 190401Z 18013KT 32/16 A2988 RMK A01 T03160155  RH  038%=      5-min Rain = 0
KST3 190402Z 18012KT 32/16 A2988 RMK A01 T03150155  RH  038%=      5-min Rain = 0
KST3 190403Z 18014KT 32/16 A2988 RMK A01 T03150155  RH  038%=      5-min Rain = 0
KST3 190404Z 18011KT 32/16 A2988 RMK A01 T03150155  RH  038%=      5-min Rain = 0
KST3 190405Z 18012KT 32/16 A2988 RMK A01 T03150156  RH  038%=      5-min Rain = 0
KST3 190406Z 18013KT 31/16 A2988 RMK A01 T03140155  RH  038%=      5-min Rain = 0
KST3 190407Z 18012KT 32/16 A2988 RMK A01 T03150155  RH  038%=      5-min Rain = 0
KST3 190408Z 18012KT 32/16 A2988 RMK A01 T03150156  RH  038%=      5-min Rain = 0
KST3 190409Z 18012KT 31/16 A2988 RMK A01 T03140156  RH  038%=      5-min Rain = 0
KST3 190410Z 18012KT 31/16 A2988 RMK A01 T03140156  RH  038%=      5-min Rain = 0
KST3 190411Z 18010KT 31/16 A2988 RMK A01 T03140156  RH  039%=      5-min Rain = 0
KST3 190412Z 18011KT 31/16 A2988 RMK A01 T03130156  RH  039%=      5-min Rain = 0
KST3 190413Z 18014KT 31/16 A2988 RMK A01 T03120156  RH  039%=      5-min Rain = 0
KST3 190414Z 18012KT 31/16 A2988 RMK A01 T03120156  RH  039%=      5-min Rain = 0
KST3 190415Z 18013KT 31/16 A2988 RMK A01 T03120155  RH  039%=      5-min Rain = 0
KST3 190416Z 18013KT 31/16 A2988 RMK A01 T03130155  RH  039%=      5-min Rain = 0
KST3 190417Z 18012KT 31/16 A2988 RMK A01 T03130156  RH  039%=      5-min Rain = 0
KST3 190418Z 18011KT 31/16 A2988 RMK A01 T03130156  RH  039%=      5-min Rain = 0
KST3 190419Z 19012KT 31/16 A2988 RMK A01 T03120156  RH  039%=      5-min Rain = 0
KST3 190420Z 18011KT 31/16 A2988 RMK A01 T03120156  RH  039%=      5-min Rain = 0
KST3 190421Z 18012KT 31/16 A2988 RMK A01 T03110156  RH  039%=      5-min Rain = 0
KST3 190422Z 18013KT 31/16 A2988 RMK A01 T03110156  RH  039%=      5-min Rain = 0
KST3 190423Z 18014KT 31/16 A2988 RMK A01 T03110155  RH  039%=      5-min Rain = 0
KST3 190424Z 18012KT 31/16 A2988 RMK A01 T03120156  RH  039%=      5-min Rain = 0
KST3 190425Z 18013KT 31/16 A2988 RMK A01 T03120155  RH  039%=      5-min Rain = 0
KST3 190426Z 18013KT 31/16 A2988 RMK A01 T03120155  RH  039%=      5-min Rain = 0
KST3 190427Z 18013KT 31/16 A2988 RMK A01 T03120156  RH  039%=      5-min Rain = 0
KST3 190428Z 18014KT 31/16 A2989 RMK A01 T03120155  RH  039%=      5-min Rain = 0
KST3 190429Z 18011KT 31/16 A2989 RMK A01 T03120155  RH  039%=      5-min Rain = 0
KST3 190430Z 18010KT 31/16 A2989 RMK A01 T03110156  RH  039%=      5-min Rain = 0
KST3 190431Z 18010KT 31/16 A2989 RMK A01 T03100156  RH  039%=      5-min Rain = 0
KST3 190432Z 18012KT 31/16 A2989 RMK A01 T03090155  RH  039%=      5-min Rain = 0
KST3 190433Z 18013KT 31/16 A2989 RMK A01 T03090155  RH  039%=      5-min Rain = 0
KST3 190434Z 18013KT 31/16 A2989 RMK A01 T03090156  RH  040%=      5-min Rain = 0
KST3 190435Z 18011KT 31/16 A2989 RMK A01 T03090156  RH  040%=      5-min Rain = 0
KST3 190436Z 18011G16KT 31/16 A2989 RMK A01 T03080156  RH  040%=      5-min Rain = 0
KST3 190437Z 18010KT 31/16 A2989 RMK A01 T03080156  RH  040%=      5-min Rain = 0
KST3 190438Z 18011KT 31/16 A2989 RMK A01 T03080155  RH  040%=      5-min Rain = 0
KST3 190439Z 18011KT 31/16 A2989 RMK A01 T03070156  RH  040%=      5-min Rain = 0
KST3 190440Z 18011KT 31/16 A2989 RMK A01 T03070156  RH  040%=      5-min Rain = 0
KST3 190441Z 18012KT 31/16 A2989 RMK A01 T03070155  RH  040%=      5-min Rain = 0
KST3 190442Z 18014KT 31/16 A2989 RMK A01 T03070155  RH  040%=      5-min Rain = 0
KST3 190443Z 18013KT 31/16 A2989 RMK A01 T03080155  RH  040%=      5-min Rain = 0
KST3 190444Z 18012KT 31/16 A2989 RMK A01 T03080155  RH  040%=      5-min Rain = 0
KST3 190445Z 18013KT 31/16 A2989 RMK A01 T03080155  RH  040%=      5-min Rain = 0
KST3 190446Z 18012KT 31/16 A2989 RMK A01 T03080155  RH  040%=      5-min Rain = 0
KST3 190447Z 18010KT 31/16 A2989 RMK A01 T03070155  RH  040%=      5-min Rain = 0
KST3 190448Z 18011KT 31/16 A2989 RMK A01 T03060155  RH  040%=      5-min Rain = 0
KST3 190449Z 18010KT 31/16 A2989 RMK A01 T03050155  RH  040%=      5-min Rain = 0
KST3 190450Z 18013KT 31/16 A2989 RMK A01 T03050155  RH  040%=      5-min Rain = 0
KST3 190451Z 18011KT 31/16 A2989 RMK A01 T03050155  RH  040%=      5-min Rain = 0
KST3 190452Z 18010KT 31/16 A2989 RMK A01 T03050155  RH  040%=      5-min Rain = 0
KST3 190453Z 18010KT 31/16 A2989 RMK A01 T03050155  RH  040%=      5-min Rain = 0
KST3 190454Z 18012KT 30/16 A2989 RMK A01 T03040155  RH  041%=      5-min Rain = 0
KST3 190455Z 18011KT 30/16 A2989 RMK A01 T03040155  RH  041%=      5-min Rain = 0
KST3 190456Z 19012KT 30/16 A2989 RMK A01 T03040155  RH  040%=      5-min Rain = 0
KST3 190457Z 18012KT 31/16 A2989 RMK A01 T03050155  RH  040%=      5-min Rain = 0
KST3 190458Z 18010KT 31/16 A2989 RMK A01 T03050155  RH  040%=      5-min Rain = 0
KST3 190459Z 18010KT 30/16 A2989 RMK A01 T03040155  RH  040%=      5-min Rain = 0

Page generated in 0.0978 seconds.